WJA2260 CYYC-MRLB
Flight info
| Callsign | WJA2260 |
|---|---|
| Flight time | 6h 42m |
| Altitude | 33000 |
| Route | GADKI DCT VOBUK DCT BIL DCT CZI DCT GCK/N0458F350 DCT CVE DCT SBI L208 DUTNA UL208 AGPOD/N0460F370 UL208 MID UB753 BZE UZ512 MGA DCT OVADO OVADO1V |
| Aircraft | B738/M-SDE2E3FGHIRWXY/LB1 |
Departure
| Time | 2026-04-16 15:36 |
|---|---|
| Airport | Calgary International Airport (CYYC) |
Arrival
| Time | 2026-04-16 22:18 |
|---|---|
| Airport | Daniel Oduber Quirós International Airport (MRLB) |
| Time | Latitude | Longitude | Altitude | Speed | Heading |
|---|---|---|---|---|---|
| 2026-04-16 14:57 | 51.12932 | -114.00533 | 3556 ft | 0 kts | 53° |
| 2026-04-16 15:24 | 51.12923 | -114.00553 | 3558 ft | 2 kts | 57° |
| 2026-04-16 15:24 | 51.12914 | -114.00575 | 3558 ft | 2 kts | 62° |
| 2026-04-16 15:24 | 51.12908 | -114.00599 | 3558 ft | 2 kts | 73° |
| 2026-04-16 15:25 | 51.12906 | -114.00625 | 3558 ft | 2 kts | 111° |
| 2026-04-16 15:25 | 51.12916 | -114.00642 | 3556 ft | 2 kts | 167° |
| 2026-04-16 15:25 | 51.12921 | -114.00643 | 3558 ft | 0 kts | 174° |
| 2026-04-16 15:29 | 51.12907 | -114.00643 | 3558 ft | 5 kts | 180° |
| 2026-04-16 15:29 | 51.12843 | -114.00642 | 3557 ft | 13 kts | 180° |
| 2026-04-16 15:29 | 51.12740 | -114.00642 | 3558 ft | 13 kts | 177° |
| 2026-04-16 15:29 | 51.12653 | -114.00637 | 3554 ft | 12 kts | 176° |
| 2026-04-16 15:30 | 51.12614 | -114.00511 | 3558 ft | 17 kts | 91° |
| 2026-04-16 15:30 | 51.12614 | -114.00305 | 3558 ft | 21 kts | 90° |
| 2026-04-16 15:30 | 51.12613 | -114.00058 | 3558 ft | 24 kts | 90° |
| 2026-04-16 15:30 | 51.12614 | -113.99785 | 3558 ft | 25 kts | 91° |
| 2026-04-16 15:31 | 51.12614 | -113.99542 | 3559 ft | 15 kts | 89° |
| 2026-04-16 15:31 | 51.12546 | -113.99447 | 3559 ft | 17 kts | 179° |
| 2026-04-16 15:31 | 51.12409 | -113.99445 | 3559 ft | 22 kts | 180° |
| 2026-04-16 15:31 | 51.12241 | -113.99445 | 3559 ft | 26 kts | 180° |
| 2026-04-16 15:32 | 51.12057 | -113.99446 | 3556 ft | 27 kts | 180° |
| 2026-04-16 15:32 | 51.11876 | -113.99446 | 3559 ft | 25 kts | 180° |
| 2026-04-16 15:32 | 51.11705 | -113.99446 | 3557 ft | 25 kts | 180° |
| 2026-04-16 15:32 | 51.11529 | -113.99444 | 3559 ft | 26 kts | 180° |
| 2026-04-16 15:33 | 51.11362 | -113.99446 | 3559 ft | 19 kts | 180° |
| 2026-04-16 15:33 | 51.11233 | -113.99447 | 3556 ft | 18 kts | 180° |
| 2026-04-16 15:33 | 51.11122 | -113.99446 | 3559 ft | 15 kts | 180° |
| 2026-04-16 15:33 | 51.11042 | -113.99408 | 3559 ft | 10 kts | 123° |
| 2026-04-16 15:34 | 51.11034 | -113.99306 | 3559 ft | 10 kts | 91° |
| 2026-04-16 15:34 | 51.11033 | -113.99200 | 3560 ft | 10 kts | 90° |
| 2026-04-16 15:34 | 51.11034 | -113.99096 | 3563 ft | 9 kts | 88° |
| 2026-04-16 15:34 | 51.11069 | -113.99036 | 3563 ft | 5 kts | 5° |
| 2026-04-16 15:35 | 51.11113 | -113.99038 | 3564 ft | 22 kts | 359° |
| 2026-04-16 15:35 | 51.11507 | -113.99036 | 3564 ft | 90 kts | 360° |
| 2026-04-16 15:35 | 51.12337 | -113.99036 | 3563 ft | 147 kts | 0° |
| 2026-04-16 15:35 | 51.13511 | -113.99042 | 3700 ft | 182 kts | 359° |
| 2026-04-16 15:36 | 51.14771 | -113.99087 | 4425 ft | 181 kts | 359° |
| 2026-04-16 15:36 | 51.16031 | -113.98921 | 5084 ft | 185 kts | 11° |
| 2026-04-16 15:36 | 51.17309 | -113.98457 | 5502 ft | 196 kts | 12° |
| 2026-04-16 15:36 | 51.18707 | -113.97861 | 5575 ft | 220 kts | 12° |
| 2026-04-16 15:37 | 51.20199 | -113.97128 | 6020 ft | 223 kts | 15° |
| 2026-04-16 15:37 | 51.21702 | -113.96465 | 6514 ft | 231 kts | 14° |
| 2026-04-16 15:37 | 51.23330 | -113.95782 | 6749 ft | 249 kts | 13° |
| 2026-04-16 15:37 | 51.24973 | -113.94851 | 7315 ft | 256 kts | 33° |
| 2026-04-16 15:38 | 51.26091 | -113.92647 | 7949 ft | 263 kts | 66° |
| 2026-04-16 15:38 | 51.26443 | -113.89754 | 8552 ft | 272 kts | 87° |
| 2026-04-16 15:38 | 51.26075 | -113.86762 | 9152 ft | 281 kts | 111° |
| 2026-04-16 15:38 | 51.24936 | -113.84191 | 9752 ft | 290 kts | 137° |
| 2026-04-16 15:39 | 51.23174 | -113.82615 | 10379 ft | 294 kts | 161° |
| 2026-04-16 15:39 | 51.21180 | -113.81877 | 11014 ft | 296 kts | 169° |
| 2026-04-16 15:39 | 51.19138 | -113.81393 | 11595 ft | 298 kts | 171° |
| 2026-04-16 15:39 | 51.17079 | -113.80965 | 12207 ft | 298 kts | 172° |
| 2026-04-16 15:40 | 51.15014 | -113.80533 | 12798 ft | 300 kts | 171° |
| 2026-04-16 15:40 | 51.12969 | -113.80087 | 13384 ft | 301 kts | 171° |
| 2026-04-16 15:40 | 51.10890 | -113.79619 | 13910 ft | 306 kts | 171° |
| 2026-04-16 15:40 | 51.08722 | -113.79118 | 14046 ft | 324 kts | 171° |
| 2026-04-16 15:41 | 51.06437 | -113.78582 | 14191 ft | 340 kts | 171° |
| 2026-04-16 15:41 | 51.04037 | -113.78010 | 14325 ft | 356 kts | 171° |
| 2026-04-16 15:41 | 51.01538 | -113.77410 | 14449 ft | 371 kts | 171° |
| 2026-04-16 15:41 | 50.98944 | -113.76785 | 14733 ft | 380 kts | 171° |
| 2026-04-16 15:42 | 50.96312 | -113.76153 | 15198 ft | 383 kts | 171° |
| 2026-04-16 15:42 | 50.93683 | -113.75523 | 15766 ft | 383 kts | 171° |
| 2026-04-16 15:42 | 50.91040 | -113.74889 | 16300 ft | 383 kts | 170° |
| 2026-04-16 15:42 | 50.88400 | -113.74256 | 16811 ft | 384 kts | 170° |
| 2026-04-16 15:43 | 50.85750 | -113.73620 | 17281 ft | 386 kts | 170° |
| 2026-04-16 15:43 | 50.83088 | -113.72982 | 17757 ft | 387 kts | 170° |
| 2026-04-16 15:43 | 50.80425 | -113.72345 | 18245 ft | 388 kts | 170° |
| 2026-04-16 15:43 | 50.77750 | -113.71705 | 18691 ft | 389 kts | 170° |
| 2026-04-16 15:44 | 50.75063 | -113.71064 | 19107 ft | 391 kts | 170° |
| 2026-04-16 15:44 | 50.72401 | -113.70428 | 19528 ft | 393 kts | 170° |
| 2026-04-16 15:44 | 50.69699 | -113.69784 | 19935 ft | 394 kts | 170° |
| 2026-04-16 15:44 | 50.66978 | -113.69125 | 20331 ft | 396 kts | 168° |
| 2026-04-16 15:45 | 50.64302 | -113.68080 | 21809 ft | 400 kts | 159° |
| 2026-04-16 15:45 | 50.61629 | -113.66684 | 21873 ft | 409 kts | 158° |
| 2026-04-16 15:45 | 50.58905 | -113.65204 | 21988 ft | 417 kts | 158° |
| 2026-04-16 15:45 | 50.56152 | -113.63702 | 22295 ft | 421 kts | 158° |
| 2026-04-16 15:46 | 50.53374 | -113.62204 | 22601 ft | 424 kts | 158° |
| 2026-04-16 15:46 | 50.50578 | -113.60715 | 23001 ft | 424 kts | 159° |
| 2026-04-16 15:46 | 50.47778 | -113.59239 | 23394 ft | 424 kts | 159° |
| 2026-04-16 15:46 | 50.44968 | -113.57767 | 23741 ft | 426 kts | 159° |
| 2026-04-16 15:47 | 50.42157 | -113.56300 | 24015 ft | 427 kts | 159° |
| 2026-04-16 15:47 | 50.39325 | -113.54825 | 24265 ft | 430 kts | 159° |
| 2026-04-16 15:47 | 50.36480 | -113.53347 | 24535 ft | 431 kts | 159° |
| 2026-04-16 15:47 | 50.33628 | -113.51866 | 24813 ft | 433 kts | 160° |
| 2026-04-16 15:48 | 50.30752 | -113.50374 | 24959 ft | 437 kts | 161° |
| 2026-04-16 15:48 | 50.27856 | -113.48873 | 25193 ft | 439 kts | 159° |
| 2026-04-16 15:48 | 50.24953 | -113.47369 | 25542 ft | 438 kts | 160° |
| 2026-04-16 15:48 | 50.22046 | -113.45868 | 25707 ft | 442 kts | 160° |
| 2026-04-16 15:49 | 50.19130 | -113.44368 | 25940 ft | 443 kts | 161° |
| 2026-04-16 15:49 | 50.16185 | -113.42853 | 26254 ft | 444 kts | 161° |
| 2026-04-16 15:49 | 50.13252 | -113.41338 | 26586 ft | 445 kts | 161° |
| 2026-04-16 15:49 | 50.10340 | -113.39835 | 26778 ft | 449 kts | 162° |
| 2026-04-16 15:50 | 50.07363 | -113.38307 | 26998 ft | 451 kts | 162° |
| 2026-04-16 15:50 | 50.04395 | -113.36786 | 27513 ft | 448 kts | 162° |
| 2026-04-16 15:50 | 50.01428 | -113.35272 | 27809 ft | 449 kts | 162° |
| 2026-04-16 15:50 | 49.98462 | -113.33756 | 28120 ft | 450 kts | 162° |
| 2026-04-16 15:51 | 49.95484 | -113.32236 | 28514 ft | 448 kts | 162° |
| 2026-04-16 15:51 | 49.92526 | -113.30725 | 28977 ft | 446 kts | 162° |
| 2026-04-16 15:51 | 49.89571 | -113.29223 | 29320 ft | 446 kts | 163° |
| 2026-04-16 15:51 | 49.86625 | -113.27721 | 29583 ft | 448 kts | 163° |
| 2026-04-16 15:52 | 49.83652 | -113.26209 | 29766 ft | 451 kts | 163° |
| 2026-04-16 15:52 | 49.80656 | -113.24688 | 29936 ft | 454 kts | 163° |
| 2026-04-16 15:52 | 49.77672 | -113.23174 | 30397 ft | 450 kts | 163° |
| 2026-04-16 15:52 | 49.74697 | -113.21657 | 30632 ft | 451 kts | 161° |
| 2026-04-16 15:53 | 49.71846 | -113.19749 | 30748 ft | 455 kts | 153° |
| 2026-04-16 15:53 | 49.69164 | -113.17140 | 31044 ft | 455 kts | 143° |
| 2026-04-16 15:53 | 49.66720 | -113.14018 | 31343 ft | 455 kts | 142° |
| 2026-04-16 15:53 | 49.64313 | -113.10858 | 31509 ft | 457 kts | 142° |
| 2026-04-16 15:54 | 49.61887 | -113.07673 | 31693 ft | 458 kts | 142° |
| 2026-04-16 15:54 | 49.59460 | -113.04506 | 31959 ft | 457 kts | 142° |
| 2026-04-16 15:54 | 49.57031 | -113.01354 | 32345 ft | 453 kts | 142° |
| 2026-04-16 15:54 | 49.54626 | -112.98250 | 32693 ft | 450 kts | 143° |
| 2026-04-16 15:55 | 49.52218 | -112.95158 | 32861 ft | 452 kts | 143° |
| 2026-04-16 15:55 | 49.49801 | -112.92063 | 32962 ft | 454 kts | 143° |
| 2026-04-16 15:55 | 49.47379 | -112.88968 | 33005 ft | 450 kts | 143° |
| 2026-04-16 15:56 | 49.42559 | -112.82824 | 33043 ft | 451 kts | 143° |
| 2026-04-16 15:56 | 49.37705 | -112.76650 | 33054 ft | 454 kts | 143° |
| 2026-04-16 15:57 | 49.32850 | -112.70489 | 33060 ft | 457 kts | 143° |
| 2026-04-16 15:57 | 49.27943 | -112.64277 | 33064 ft | 457 kts | 144° |
| 2026-04-16 15:58 | 49.23028 | -112.58075 | 33063 ft | 457 kts | 144° |
| 2026-04-16 15:58 | 49.18112 | -112.51887 | 33050 ft | 456 kts | 144° |
| 2026-04-16 15:59 | 49.10768 | -112.42674 | 33021 ft | 454 kts | 145° |
| 2026-04-16 15:59 | 49.05888 | -112.36570 | 33043 ft | 452 kts | 145° |
| 2026-04-16 16:00 | 49.01031 | -112.30511 | 33042 ft | 450 kts | 145° |
| 2026-04-16 16:00 | 48.96217 | -112.24521 | 33040 ft | 449 kts | 145° |
| 2026-04-16 16:01 | 48.91333 | -112.18464 | 33208 ft | 454 kts | 145° |
| 2026-04-16 16:01 | 48.88885 | -112.15435 | 33477 ft | 453 kts | 145° |
| 2026-04-16 16:01 | 48.86449 | -112.12420 | 33746 ft | 452 kts | 145° |
| 2026-04-16 16:02 | 48.84011 | -112.09409 | 33940 ft | 452 kts | 145° |
| 2026-04-16 16:02 | 48.81562 | -112.06389 | 34094 ft | 454 kts | 145° |
| 2026-04-16 16:02 | 48.79116 | -112.03375 | 34288 ft | 453 kts | 145° |
| 2026-04-16 16:02 | 48.76666 | -112.00361 | 34478 ft | 453 kts | 145° |
| 2026-04-16 16:03 | 48.74215 | -111.97346 | 34598 ft | 454 kts | 145° |
| 2026-04-16 16:03 | 48.71766 | -111.94333 | 34776 ft | 453 kts | 145° |
| 2026-04-16 16:03 | 48.69314 | -111.91324 | 34940 ft | 452 kts | 145° |
| 2026-04-16 16:03 | 48.66862 | -111.88325 | 34981 ft | 454 kts | 146° |
| 2026-04-16 16:04 | 48.61959 | -111.82347 | 35001 ft | 456 kts | 145° |
| 2026-04-16 16:04 | 48.57015 | -111.76320 | 34996 ft | 457 kts | 145° |
| 2026-04-16 16:05 | 48.52071 | -111.70311 | 34990 ft | 456 kts | 146° |
| 2026-04-16 16:05 | 48.47119 | -111.64316 | 35006 ft | 456 kts | 146° |
| 2026-04-16 16:06 | 48.42176 | -111.58340 | 34999 ft | 456 kts | 146° |
| 2026-04-16 16:06 | 48.37239 | -111.52386 | 34972 ft | 454 kts | 146° |
| 2026-04-16 16:07 | 48.32315 | -111.46458 | 34987 ft | 453 kts | 146° |
| 2026-04-16 16:07 | 48.27395 | -111.40557 | 34992 ft | 452 kts | 146° |
| 2026-04-16 16:08 | 48.22475 | -111.34670 | 34995 ft | 452 kts | 146° |
| 2026-04-16 16:08 | 48.17592 | -111.28836 | 34985 ft | 453 kts | 147° |
| 2026-04-16 16:09 | 48.12663 | -111.22962 | 34992 ft | 452 kts | 147° |
| 2026-04-16 16:09 | 48.07742 | -111.17116 | 34986 ft | 451 kts | 147° |
| 2026-04-16 16:10 | 48.02821 | -111.11286 | 34990 ft | 451 kts | 147° |
| 2026-04-16 16:10 | 47.97898 | -111.05471 | 34981 ft | 451 kts | 147° |
| 2026-04-16 16:11 | 47.92973 | -110.99671 | 34981 ft | 451 kts | 147° |
| 2026-04-16 16:11 | 47.88039 | -110.93872 | 34982 ft | 451 kts | 147° |
| 2026-04-16 16:12 | 47.83100 | -110.88077 | 34975 ft | 452 kts | 147° |
| 2026-04-16 16:12 | 47.78164 | -110.82297 | 34959 ft | 451 kts | 147° |
| 2026-04-16 16:13 | 47.74061 | -110.77506 | 34970 ft | 451 kts | 147° |
| 2026-04-16 16:13 | 47.68284 | -110.70781 | 34976 ft | 451 kts | 147° |
| 2026-04-16 16:14 | 47.64174 | -110.66007 | 34973 ft | 451 kts | 147° |
| 2026-04-16 16:14 | 47.59236 | -110.60283 | 34970 ft | 451 kts | 148° |
| 2026-04-16 16:15 | 47.54282 | -110.54555 | 34975 ft | 451 kts | 148° |
| 2026-04-16 16:15 | 47.49352 | -110.48876 | 34980 ft | 451 kts | 148° |
| 2026-04-16 16:16 | 47.44398 | -110.43172 | 34943 ft | 452 kts | 148° |
| 2026-04-16 16:16 | 47.39436 | -110.37474 | 34958 ft | 452 kts | 148° |
| 2026-04-16 16:17 | 47.34451 | -110.31768 | 34938 ft | 454 kts | 149° |
| 2026-04-16 16:17 | 47.29459 | -110.26069 | 34944 ft | 454 kts | 149° |
| 2026-04-16 16:18 | 47.24483 | -110.20399 | 34922 ft | 454 kts | 149° |
| 2026-04-16 16:18 | 47.19471 | -110.14702 | 34928 ft | 455 kts | 149° |
| 2026-04-16 16:19 | 47.14458 | -110.09022 | 34935 ft | 455 kts | 149° |
| 2026-04-16 16:19 | 47.09437 | -110.03343 | 34926 ft | 455 kts | 149° |
| 2026-04-16 16:20 | 47.04414 | -109.97673 | 34921 ft | 456 kts | 149° |
| 2026-04-16 16:20 | 46.99386 | -109.92013 | 34925 ft | 455 kts | 149° |
| 2026-04-16 16:21 | 46.94358 | -109.86367 | 34920 ft | 455 kts | 149° |
| 2026-04-16 16:21 | 46.89341 | -109.80748 | 34905 ft | 454 kts | 150° |
| 2026-04-16 16:22 | 46.84359 | -109.75184 | 34918 ft | 453 kts | 150° |
| 2026-04-16 16:22 | 46.79359 | -109.69615 | 34930 ft | 452 kts | 150° |
| 2026-04-16 16:23 | 46.74360 | -109.64055 | 34924 ft | 451 kts | 150° |
| 2026-04-16 16:23 | 46.69380 | -109.58526 | 34898 ft | 449 kts | 151° |
| 2026-04-16 16:24 | 46.64411 | -109.53026 | 34904 ft | 449 kts | 151° |
| 2026-04-16 16:24 | 46.59435 | -109.47534 | 34899 ft | 448 kts | 151° |
| 2026-04-16 16:25 | 46.54472 | -109.42068 | 34863 ft | 448 kts | 152° |
| 2026-04-16 16:25 | 46.49505 | -109.36612 | 34878 ft | 448 kts | 152° |
| 2026-04-16 16:26 | 46.44526 | -109.31155 | 34864 ft | 448 kts | 152° |
| 2026-04-16 16:26 | 46.39542 | -109.25704 | 34860 ft | 449 kts | 152° |
| 2026-04-16 16:27 | 46.34546 | -109.20250 | 34854 ft | 450 kts | 152° |
| 2026-04-16 16:27 | 46.29542 | -109.14803 | 34849 ft | 450 kts | 152° |
| 2026-04-16 16:28 | 46.24554 | -109.09393 | 34847 ft | 451 kts | 152° |
| 2026-04-16 16:28 | 46.19526 | -109.03941 | 34854 ft | 451 kts | 152° |
| 2026-04-16 16:29 | 46.14509 | -108.98513 | 34854 ft | 450 kts | 152° |
| 2026-04-16 16:29 | 46.09499 | -108.93110 | 34858 ft | 449 kts | 152° |
| 2026-04-16 16:30 | 46.04498 | -108.87732 | 34860 ft | 448 kts | 152° |
| 2026-04-16 16:30 | 45.99514 | -108.82378 | 34856 ft | 446 kts | 153° |
| 2026-04-16 16:31 | 45.94576 | -108.77088 | 34861 ft | 445 kts | 153° |
| 2026-04-16 16:31 | 45.89615 | -108.71790 | 34852 ft | 444 kts | 153° |
| 2026-04-16 16:32 | 45.84655 | -108.66497 | 34851 ft | 443 kts | 153° |
| 2026-04-16 16:32 | 45.79745 | -108.61176 | 34842 ft | 445 kts | 150° |
| 2026-04-16 16:33 | 45.75055 | -108.55349 | 34842 ft | 447 kts | 148° |
| 2026-04-16 16:33 | 45.70425 | -108.49399 | 34850 ft | 446 kts | 148° |
| 2026-04-16 16:34 | 45.65796 | -108.43511 | 34834 ft | 445 kts | 149° |
| 2026-04-16 16:34 | 45.61168 | -108.37693 | 34854 ft | 443 kts | 149° |
| 2026-04-16 16:35 | 45.56560 | -108.31932 | 34865 ft | 442 kts | 149° |
| 2026-04-16 16:35 | 45.51937 | -108.26164 | 34870 ft | 441 kts | 149° |
| 2026-04-16 16:36 | 45.47309 | -108.20415 | 34857 ft | 442 kts | 149° |
| 2026-04-16 16:36 | 45.42677 | -108.14668 | 34865 ft | 442 kts | 149° |
| 2026-04-16 16:37 | 45.38035 | -108.08917 | 34856 ft | 442 kts | 149° |
| 2026-04-16 16:37 | 45.33412 | -108.03201 | 34850 ft | 443 kts | 149° |
| 2026-04-16 16:38 | 45.28714 | -107.97410 | 34836 ft | 445 kts | 149° |
| 2026-04-16 16:38 | 45.24054 | -107.91678 | 34836 ft | 446 kts | 149° |
| 2026-04-16 16:39 | 45.19342 | -107.85894 | 34827 ft | 448 kts | 149° |
| 2026-04-16 16:39 | 45.14628 | -107.80120 | 34782 ft | 448 kts | 149° |
| 2026-04-16 16:40 | 45.09917 | -107.74358 | 34815 ft | 447 kts | 149° |
| 2026-04-16 16:40 | 45.05233 | -107.68539 | 34809 ft | 449 kts | 149° |
| 2026-04-16 16:41 | 45.00498 | -107.62790 | 34781 ft | 448 kts | 150° |
| 2026-04-16 16:41 | 44.95757 | -107.57093 | 34765 ft | 446 kts | 150° |
| 2026-04-16 16:42 | 44.91040 | -107.51429 | 34765 ft | 444 kts | 150° |
| 2026-04-16 16:42 | 44.86370 | -107.45763 | 34754 ft | 442 kts | 150° |
| 2026-04-16 16:43 | 44.81695 | -107.40137 | 34732 ft | 441 kts | 150° |
| 2026-04-16 16:43 | 44.77038 | -107.34539 | 34776 ft | 440 kts | 150° |
| 2026-04-16 16:44 | 44.72420 | -107.29001 | 34791 ft | 437 kts | 151° |
| 2026-04-16 16:44 | 44.67749 | -107.23518 | 34791 ft | 436 kts | 150° |
| 2026-04-16 16:45 | 44.63147 | -107.17898 | 34787 ft | 438 kts | 149° |
| 2026-04-16 16:45 | 44.58482 | -107.12342 | 34782 ft | 440 kts | 149° |
| 2026-04-16 16:46 | 44.53796 | -107.06765 | 34781 ft | 443 kts | 149° |
| 2026-04-16 16:46 | 44.49078 | -107.01162 | 34710 ft | 445 kts | 149° |
| 2026-04-16 16:47 | 44.44340 | -106.95575 | 34710 ft | 445 kts | 149° |
| 2026-04-16 16:47 | 44.39653 | -106.89843 | 34694 ft | 447 kts | 149° |
| 2026-04-16 16:48 | 44.34877 | -106.84273 | 34771 ft | 447 kts | 149° |
| 2026-04-16 16:48 | 44.30130 | -106.78760 | 34765 ft | 447 kts | 149° |
| 2026-04-16 16:49 | 44.25324 | -106.73153 | 34699 ft | 447 kts | 149° |
| 2026-04-16 16:49 | 44.20570 | -106.67579 | 34696 ft | 446 kts | 149° |
| 2026-04-16 16:50 | 44.15860 | -106.62065 | 34664 ft | 444 kts | 149° |
| 2026-04-16 16:50 | 44.11133 | -106.56547 | 34687 ft | 443 kts | 149° |
| 2026-04-16 16:51 | 44.06412 | -106.51050 | 34672 ft | 442 kts | 149° |
| 2026-04-16 16:51 | 44.01701 | -106.45573 | 34649 ft | 441 kts | 149° |
| 2026-04-16 16:52 | 43.96954 | -106.40219 | 34676 ft | 436 kts | 152° |
| 2026-04-16 16:52 | 43.92112 | -106.35158 | 34655 ft | 436 kts | 153° |
| 2026-04-16 16:53 | 43.87254 | -106.30124 | 34643 ft | 436 kts | 153° |
| 2026-04-16 16:53 | 43.82425 | -106.25095 | 34634 ft | 437 kts | 153° |
| 2026-04-16 16:54 | 43.77564 | -106.20008 | 34638 ft | 438 kts | 153° |
| 2026-04-16 16:54 | 43.72711 | -106.14931 | 34635 ft | 438 kts | 153° |
| 2026-04-16 16:55 | 43.67857 | -106.09863 | 34617 ft | 437 kts | 153° |
| 2026-04-16 16:55 | 43.63005 | -106.04809 | 34610 ft | 436 kts | 153° |
| 2026-04-16 16:56 | 43.58157 | -105.99767 | 34615 ft | 436 kts | 153° |
| 2026-04-16 16:56 | 43.53322 | -105.94757 | 34602 ft | 435 kts | 153° |
| 2026-04-16 16:57 | 43.46108 | -105.87285 | 34613 ft | 434 kts | 153° |
| 2026-04-16 16:58 | 43.41282 | -105.82307 | 34627 ft | 434 kts | 153° |
| 2026-04-16 16:58 | 43.36439 | -105.77322 | 34628 ft | 435 kts | 153° |
| 2026-04-16 16:59 | 43.31587 | -105.72334 | 34599 ft | 436 kts | 152° |
| 2026-04-16 16:59 | 43.26732 | -105.67353 | 34627 ft | 436 kts | 152° |
| 2026-04-16 17:00 | 43.21866 | -105.62372 | 34639 ft | 437 kts | 153° |
| 2026-04-16 17:00 | 43.16981 | -105.57382 | 34646 ft | 438 kts | 153° |
| 2026-04-16 17:01 | 43.12085 | -105.52392 | 34639 ft | 439 kts | 152° |
| 2026-04-16 17:01 | 43.07202 | -105.47423 | 34648 ft | 441 kts | 152° |
| 2026-04-16 17:02 | 43.03071 | -105.43228 | 34640 ft | 442 kts | 152° |
| 2026-04-16 17:02 | 42.98150 | -105.38240 | 34639 ft | 443 kts | 152° |
| 2026-04-16 17:03 | 42.93189 | -105.33220 | 34642 ft | 444 kts | 152° |
| 2026-04-16 17:03 | 42.88228 | -105.28211 | 34731 ft | 444 kts | 152° |
| 2026-04-16 17:04 | 42.83257 | -105.23221 | 34757 ft | 445 kts | 153° |
| 2026-04-16 17:04 | 42.78253 | -105.18237 | 34743 ft | 445 kts | 152° |
| 2026-04-16 17:05 | 42.73285 | -105.13219 | 34727 ft | 444 kts | 152° |
| 2026-04-16 17:05 | 42.68312 | -105.08214 | 34717 ft | 444 kts | 152° |
| 2026-04-16 17:06 | 42.63362 | -105.03261 | 34690 ft | 444 kts | 152° |
| 2026-04-16 17:06 | 42.58373 | -104.98286 | 34701 ft | 444 kts | 152° |
| 2026-04-16 17:07 | 42.53382 | -104.93321 | 34720 ft | 445 kts | 152° |
| 2026-04-16 17:07 | 42.48377 | -104.88389 | 34752 ft | 443 kts | 153° |
| 2026-04-16 17:08 | 42.43374 | -104.83360 | 34754 ft | 448 kts | 151° |
| 2026-04-16 17:08 | 42.38331 | -104.78371 | 34777 ft | 450 kts | 152° |
| 2026-04-16 17:09 | 42.33261 | -104.73387 | 34790 ft | 451 kts | 152° |
| 2026-04-16 17:09 | 42.28174 | -104.68389 | 34789 ft | 453 kts | 152° |
| 2026-04-16 17:10 | 42.23093 | -104.63397 | 34780 ft | 454 kts | 151° |
| 2026-04-16 17:10 | 42.17974 | -104.58372 | 34743 ft | 456 kts | 151° |
| 2026-04-16 17:11 | 42.12835 | -104.53340 | 34747 ft | 457 kts | 152° |
| 2026-04-16 17:11 | 42.07682 | -104.48306 | 34759 ft | 458 kts | 152° |
| 2026-04-16 17:12 | 42.02511 | -104.43260 | 34772 ft | 460 kts | 152° |
| 2026-04-16 17:12 | 41.97351 | -104.38238 | 34784 ft | 460 kts | 152° |
| 2026-04-16 17:13 | 41.92161 | -104.33201 | 34774 ft | 460 kts | 152° |
| 2026-04-16 17:13 | 41.86975 | -104.28165 | 34770 ft | 459 kts | 152° |
| 2026-04-16 17:14 | 41.81797 | -104.23204 | 34767 ft | 456 kts | 152° |
| 2026-04-16 17:14 | 41.76640 | -104.18216 | 34739 ft | 457 kts | 152° |
| 2026-04-16 17:15 | 41.71487 | -104.13226 | 34717 ft | 457 kts | 152° |
| 2026-04-16 17:15 | 41.66315 | -104.08247 | 34728 ft | 458 kts | 152° |
| 2026-04-16 17:16 | 41.61137 | -104.03248 | 34741 ft | 460 kts | 152° |
| 2026-04-16 17:16 | 41.55974 | -103.98303 | 34750 ft | 454 kts | 154° |
| 2026-04-16 17:17 | 41.50739 | -103.93578 | 34760 ft | 457 kts | 153° |
| 2026-04-16 17:17 | 41.45547 | -103.88569 | 34802 ft | 466 kts | 151° |
| 2026-04-16 17:18 | 41.40316 | -103.83458 | 34806 ft | 465 kts | 151° |
| 2026-04-16 17:18 | 41.35072 | -103.78373 | 34811 ft | 466 kts | 152° |
| 2026-04-16 17:19 | 41.29778 | -103.73378 | 34870 ft | 466 kts | 152° |
| 2026-04-16 17:19 | 41.24478 | -103.68395 | 34893 ft | 467 kts | 152° |
| 2026-04-16 17:20 | 41.19212 | -103.63434 | 34891 ft | 467 kts | 152° |
| 2026-04-16 17:20 | 41.13914 | -103.58441 | 34881 ft | 467 kts | 152° |
| 2026-04-16 17:21 | 41.08616 | -103.53461 | 34846 ft | 466 kts | 152° |
| 2026-04-16 17:21 | 41.03334 | -103.48504 | 34796 ft | 465 kts | 152° |
| 2026-04-16 17:22 | 40.98059 | -103.43564 | 34759 ft | 463 kts | 152° |
| 2026-04-16 17:22 | 40.92806 | -103.38654 | 34742 ft | 462 kts | 152° |
| 2026-04-16 17:23 | 40.87567 | -103.33770 | 34749 ft | 460 kts | 152° |
| 2026-04-16 17:23 | 40.82334 | -103.28900 | 34750 ft | 460 kts | 152° |
| 2026-04-16 17:24 | 40.77110 | -103.24049 | 34816 ft | 459 kts | 152° |
| 2026-04-16 17:24 | 40.71884 | -103.19203 | 34838 ft | 459 kts | 152° |
| 2026-04-16 17:25 | 40.66649 | -103.14361 | 34849 ft | 460 kts | 152° |
| 2026-04-16 17:25 | 40.61444 | -103.09554 | 34764 ft | 461 kts | 152° |
| 2026-04-16 17:26 | 40.56181 | -103.04703 | 34749 ft | 462 kts | 152° |
| 2026-04-16 17:26 | 40.50893 | -102.99841 | 34761 ft | 464 kts | 152° |
| 2026-04-16 17:27 | 40.45583 | -102.94966 | 34759 ft | 466 kts | 152° |
| 2026-04-16 17:27 | 40.40252 | -102.90079 | 34738 ft | 468 kts | 152° |
| 2026-04-16 17:28 | 40.34898 | -102.85185 | 34752 ft | 469 kts | 152° |
| 2026-04-16 17:28 | 40.29537 | -102.80291 | 34760 ft | 470 kts | 152° |
| 2026-04-16 17:29 | 40.24167 | -102.75397 | 34776 ft | 470 kts | 152° |
| 2026-04-16 17:29 | 40.18788 | -102.70508 | 34748 ft | 470 kts | 152° |
| 2026-04-16 17:30 | 40.13448 | -102.65662 | 34754 ft | 469 kts | 152° |
| 2026-04-16 17:30 | 40.08081 | -102.60802 | 34779 ft | 469 kts | 152° |
| 2026-04-16 17:31 | 40.02716 | -102.55954 | 34771 ft | 468 kts | 152° |
| 2026-04-16 17:31 | 39.97362 | -102.51125 | 34777 ft | 467 kts | 152° |
| 2026-04-16 17:32 | 39.92016 | -102.46308 | 34784 ft | 467 kts | 152° |
| 2026-04-16 17:32 | 39.86667 | -102.41503 | 34768 ft | 466 kts | 152° |
| 2026-04-16 17:33 | 39.81329 | -102.36715 | 34774 ft | 466 kts | 152° |
| 2026-04-16 17:33 | 39.76029 | -102.31973 | 34765 ft | 465 kts | 152° |
| 2026-04-16 17:34 | 39.70699 | -102.27212 | 34775 ft | 465 kts | 152° |
| 2026-04-16 17:34 | 39.65369 | -102.22459 | 34782 ft | 464 kts | 152° |
| 2026-04-16 17:35 | 39.60031 | -102.17709 | 34767 ft | 465 kts | 152° |
| 2026-04-16 17:35 | 39.54698 | -102.12971 | 34775 ft | 465 kts | 152° |
| 2026-04-16 17:36 | 39.49360 | -102.08239 | 34781 ft | 465 kts | 152° |
| 2026-04-16 17:36 | 39.44008 | -102.03503 | 34769 ft | 466 kts | 152° |
| 2026-04-16 17:37 | 39.38686 | -101.98801 | 34760 ft | 466 kts | 152° |
| 2026-04-16 17:37 | 39.33315 | -101.94066 | 34840 ft | 466 kts | 152° |
| 2026-04-16 17:38 | 39.27953 | -101.89351 | 34848 ft | 467 kts | 152° |
| 2026-04-16 17:38 | 39.22579 | -101.84633 | 34844 ft | 468 kts | 152° |
| 2026-04-16 17:39 | 39.17198 | -101.79914 | 34820 ft | 468 kts | 152° |
| 2026-04-16 17:39 | 39.11802 | -101.75190 | 34818 ft | 468 kts | 152° |
| 2026-04-16 17:40 | 39.06436 | -101.70504 | 34801 ft | 469 kts | 152° |
| 2026-04-16 17:40 | 39.01042 | -101.65802 | 34784 ft | 469 kts | 151° |
| 2026-04-16 17:41 | 38.95633 | -101.61098 | 34772 ft | 468 kts | 151° |
| 2026-04-16 17:41 | 38.90238 | -101.56412 | 34777 ft | 468 kts | 151° |
| 2026-04-16 17:42 | 38.84851 | -101.51741 | 34784 ft | 467 kts | 152° |
| 2026-04-16 17:42 | 38.79457 | -101.47075 | 34787 ft | 467 kts | 152° |
| 2026-04-16 17:43 | 38.74074 | -101.42426 | 34785 ft | 466 kts | 151° |
| 2026-04-16 17:43 | 38.68686 | -101.37782 | 34789 ft | 466 kts | 152° |
| 2026-04-16 17:44 | 38.63339 | -101.33181 | 34789 ft | 466 kts | 152° |
| 2026-04-16 17:44 | 38.57953 | -101.28557 | 34802 ft | 466 kts | 151° |
| 2026-04-16 17:45 | 38.52570 | -101.23940 | 34830 ft | 466 kts | 151° |
| 2026-04-16 17:45 | 38.47176 | -101.19328 | 34839 ft | 466 kts | 152° |
| 2026-04-16 17:46 | 38.41781 | -101.14720 | 34851 ft | 466 kts | 152° |
| 2026-04-16 17:46 | 38.36389 | -101.10121 | 34847 ft | 466 kts | 152° |
| 2026-04-16 17:47 | 38.31050 | -101.05577 | 34853 ft | 466 kts | 152° |
| 2026-04-16 17:47 | 38.25596 | -101.00944 | 34853 ft | 466 kts | 152° |
| 2026-04-16 17:48 | 38.20220 | -100.96385 | 34837 ft | 467 kts | 152° |
| 2026-04-16 17:48 | 38.14818 | -100.91814 | 34826 ft | 467 kts | 152° |
| 2026-04-16 17:49 | 38.09407 | -100.87241 | 34813 ft | 467 kts | 152° |
| 2026-04-16 17:49 | 38.03995 | -100.82676 | 34828 ft | 467 kts | 152° |
| 2026-04-16 17:50 | 37.99471 | -100.78866 | 34823 ft | 468 kts | 152° |
| 2026-04-16 17:50 | 37.94033 | -100.74293 | 34908 ft | 469 kts | 152° |
| 2026-04-16 17:51 | 37.88582 | -100.69752 | 34906 ft | 469 kts | 152° |
| 2026-04-16 17:51 | 37.83093 | -100.65272 | 34902 ft | 470 kts | 153° |
| 2026-04-16 17:52 | 37.77601 | -100.60804 | 34886 ft | 470 kts | 153° |
| 2026-04-16 17:52 | 37.72091 | -100.56321 | 34865 ft | 470 kts | 153° |
| 2026-04-16 17:53 | 37.66623 | -100.51870 | 34840 ft | 469 kts | 153° |
| 2026-04-16 17:53 | 37.61140 | -100.47414 | 34838 ft | 468 kts | 153° |
| 2026-04-16 17:54 | 37.55660 | -100.42969 | 34836 ft | 468 kts | 153° |
| 2026-04-16 17:54 | 37.50190 | -100.38543 | 34839 ft | 467 kts | 153° |
| 2026-04-16 17:55 | 37.44731 | -100.34130 | 34841 ft | 466 kts | 153° |
| 2026-04-16 17:55 | 37.39275 | -100.29729 | 34848 ft | 465 kts | 153° |
| 2026-04-16 17:56 | 37.33855 | -100.25365 | 34841 ft | 466 kts | 153° |
| 2026-04-16 17:56 | 37.25651 | -100.18777 | 34844 ft | 469 kts | 153° |
| 2026-04-16 17:57 | 37.22886 | -100.16560 | 34967 ft | 471 kts | 153° |
| 2026-04-16 17:57 | 37.20130 | -100.14350 | 35198 ft | 470 kts | 153° |
| 2026-04-16 17:57 | 37.17376 | -100.12141 | 35451 ft | 468 kts | 153° |
| 2026-04-16 17:57 | 37.14633 | -100.09944 | 35640 ft | 468 kts | 153° |
| 2026-04-16 17:58 | 37.11890 | -100.07752 | 35808 ft | 469 kts | 153° |
| 2026-04-16 17:58 | 37.09139 | -100.05554 | 36018 ft | 468 kts | 153° |
| 2026-04-16 17:58 | 37.06391 | -100.03362 | 36233 ft | 467 kts | 153° |
| 2026-04-16 17:58 | 37.03655 | -100.01181 | 36412 ft | 467 kts | 154° |
| 2026-04-16 17:59 | 37.00911 | -99.98997 | 36548 ft | 468 kts | 154° |
| 2026-04-16 17:59 | 36.98160 | -99.96809 | 36703 ft | 468 kts | 154° |
| 2026-04-16 17:59 | 36.95421 | -99.94631 | 36844 ft | 468 kts | 154° |
| 2026-04-16 17:59 | 36.92664 | -99.92441 | 36838 ft | 470 kts | 154° |
| 2026-04-16 18:00 | 36.87141 | -99.88060 | 36836 ft | 468 kts | 154° |
| 2026-04-16 18:00 | 36.81698 | -99.83744 | 36822 ft | 465 kts | 154° |
| 2026-04-16 18:01 | 36.76259 | -99.79440 | 36841 ft | 462 kts | 154° |
| 2026-04-16 18:01 | 36.70843 | -99.75165 | 36851 ft | 461 kts | 154° |
| 2026-04-16 18:02 | 36.65418 | -99.70890 | 36860 ft | 461 kts | 154° |
| 2026-04-16 18:02 | 36.59979 | -99.66612 | 36860 ft | 463 kts | 154° |
| 2026-04-16 18:03 | 36.54522 | -99.62329 | 36943 ft | 465 kts | 154° |
| 2026-04-16 18:03 | 36.49024 | -99.58022 | 36970 ft | 468 kts | 154° |
| 2026-04-16 18:04 | 36.43492 | -99.53693 | 36964 ft | 471 kts | 154° |
| 2026-04-16 18:04 | 36.37923 | -99.49341 | 36967 ft | 474 kts | 154° |
| 2026-04-16 18:05 | 36.32332 | -99.44980 | 36947 ft | 475 kts | 154° |
| 2026-04-16 18:05 | 36.26714 | -99.40606 | 36924 ft | 477 kts | 154° |
| 2026-04-16 18:06 | 36.21131 | -99.36263 | 36857 ft | 477 kts | 154° |
| 2026-04-16 18:06 | 36.15520 | -99.31906 | 36859 ft | 475 kts | 154° |
| 2026-04-16 18:07 | 36.09921 | -99.27567 | 36862 ft | 474 kts | 155° |
| 2026-04-16 18:07 | 36.04339 | -99.23249 | 36871 ft | 473 kts | 155° |
| 2026-04-16 18:08 | 35.98772 | -99.18951 | 36884 ft | 472 kts | 155° |
| 2026-04-16 18:08 | 35.93207 | -99.14662 | 36876 ft | 471 kts | 155° |
| 2026-04-16 18:09 | 35.87643 | -99.10381 | 36869 ft | 471 kts | 155° |
| 2026-04-16 18:09 | 35.82091 | -99.06119 | 36890 ft | 471 kts | 155° |
| 2026-04-16 18:10 | 35.76512 | -99.01841 | 36888 ft | 472 kts | 155° |
| 2026-04-16 18:10 | 35.70926 | -98.97564 | 36912 ft | 474 kts | 155° |
| 2026-04-16 18:11 | 35.65322 | -98.93277 | 36928 ft | 475 kts | 155° |
| 2026-04-16 18:11 | 35.59728 | -98.89011 | 36940 ft | 476 kts | 155° |
| 2026-04-16 18:12 | 35.54083 | -98.84713 | 36951 ft | 477 kts | 155° |
| 2026-04-16 18:12 | 35.48431 | -98.80414 | 36957 ft | 478 kts | 155° |
| 2026-04-16 18:13 | 35.42769 | -98.76115 | 36920 ft | 479 kts | 156° |
| 2026-04-16 18:13 | 35.37106 | -98.71821 | 36936 ft | 479 kts | 156° |
| 2026-04-16 18:14 | 35.31433 | -98.67529 | 36942 ft | 479 kts | 155° |
| 2026-04-16 18:14 | 35.25758 | -98.63240 | 36930 ft | 480 kts | 156° |
| 2026-04-16 18:15 | 35.20081 | -98.58958 | 36923 ft | 480 kts | 156° |
| 2026-04-16 18:15 | 35.14395 | -98.54676 | 36917 ft | 480 kts | 156° |
| 2026-04-16 18:16 | 35.08702 | -98.50399 | 36926 ft | 481 kts | 156° |
| 2026-04-16 18:16 | 35.03034 | -98.46145 | 36914 ft | 482 kts | 156° |
| 2026-04-16 18:17 | 34.97309 | -98.41858 | 36918 ft | 483 kts | 156° |
| 2026-04-16 18:17 | 34.91577 | -98.37570 | 36913 ft | 483 kts | 157° |
| 2026-04-16 18:18 | 34.85829 | -98.33278 | 36929 ft | 484 kts | 157° |
| 2026-04-16 18:18 | 34.80071 | -98.28986 | 36932 ft | 485 kts | 156° |
| 2026-04-16 18:19 | 34.74331 | -98.24713 | 36938 ft | 486 kts | 156° |
| 2026-04-16 18:19 | 34.68559 | -98.20421 | 36914 ft | 486 kts | 158° |
| 2026-04-16 18:20 | 34.62783 | -98.16135 | 36931 ft | 486 kts | 158° |
| 2026-04-16 18:20 | 34.57013 | -98.11871 | 36980 ft | 485 kts | 158° |
| 2026-04-16 18:21 | 34.51238 | -98.07600 | 36994 ft | 486 kts | 158° |
| 2026-04-16 18:21 | 34.45497 | -98.03357 | 36962 ft | 486 kts | 158° |
| 2026-04-16 18:22 | 34.39737 | -97.99105 | 36932 ft | 485 kts | 158° |
| 2026-04-16 18:22 | 34.33986 | -97.94866 | 36945 ft | 482 kts | 158° |
| 2026-04-16 18:23 | 34.28250 | -97.90666 | 36948 ft | 480 kts | 159° |
| 2026-04-16 18:23 | 34.22528 | -97.86483 | 36944 ft | 481 kts | 159° |
| 2026-04-16 18:24 | 34.16804 | -97.82292 | 36947 ft | 481 kts | 159° |
| 2026-04-16 18:24 | 34.11078 | -97.78087 | 36945 ft | 482 kts | 159° |
| 2026-04-16 18:25 | 34.05357 | -97.73909 | 36950 ft | 480 kts | 159° |
| 2026-04-16 18:25 | 33.99647 | -97.69753 | 36956 ft | 479 kts | 159° |
| 2026-04-16 18:26 | 33.93929 | -97.65602 | 36953 ft | 480 kts | 159° |
| 2026-04-16 18:26 | 33.88215 | -97.61449 | 36955 ft | 479 kts | 159° |
| 2026-04-16 18:27 | 33.82499 | -97.57302 | 36968 ft | 479 kts | 160° |
| 2026-04-16 18:27 | 33.76825 | -97.53194 | 36967 ft | 480 kts | 160° |
| 2026-04-16 18:28 | 33.71111 | -97.49064 | 36968 ft | 479 kts | 160° |
| 2026-04-16 18:28 | 33.65402 | -97.44945 | 37006 ft | 479 kts | 160° |
| 2026-04-16 18:29 | 33.59693 | -97.40832 | 37019 ft | 479 kts | 160° |
| 2026-04-16 18:29 | 33.53969 | -97.36711 | 37032 ft | 479 kts | 160° |
| 2026-04-16 18:30 | 33.48254 | -97.32603 | 37015 ft | 479 kts | 160° |
| 2026-04-16 18:30 | 33.42538 | -97.28503 | 37004 ft | 478 kts | 160° |
| 2026-04-16 18:31 | 33.36827 | -97.24416 | 37022 ft | 478 kts | 160° |
| 2026-04-16 18:31 | 33.31117 | -97.20329 | 37027 ft | 478 kts | 160° |
| 2026-04-16 18:32 | 33.25411 | -97.16255 | 37038 ft | 477 kts | 160° |
| 2026-04-16 18:32 | 33.19747 | -97.12217 | 37039 ft | 477 kts | 160° |
| 2026-04-16 18:33 | 33.14044 | -97.08157 | 37034 ft | 477 kts | 160° |
| 2026-04-16 18:33 | 33.08349 | -97.04111 | 37019 ft | 476 kts | 160° |
| 2026-04-16 18:34 | 33.02649 | -97.00065 | 37023 ft | 476 kts | 160° |
| 2026-04-16 18:34 | 32.96950 | -96.96026 | 37027 ft | 476 kts | 160° |
| 2026-04-16 18:35 | 32.91270 | -96.92007 | 37051 ft | 475 kts | 160° |
| 2026-04-16 18:35 | 32.85717 | -96.87613 | 37059 ft | 485 kts | 153° |
| 2026-04-16 18:36 | 32.80451 | -96.82628 | 37037 ft | 489 kts | 152° |
| 2026-04-16 18:36 | 32.75161 | -96.77549 | 37045 ft | 488 kts | 152° |
| 2026-04-16 18:37 | 32.69841 | -96.72531 | 37000 ft | 487 kts | 152° |
| 2026-04-16 18:37 | 32.64514 | -96.67568 | 37033 ft | 486 kts | 152° |
| 2026-04-16 18:38 | 32.60083 | -96.63459 | 37034 ft | 486 kts | 152° |
| 2026-04-16 18:38 | 32.54735 | -96.58508 | 37032 ft | 487 kts | 152° |
| 2026-04-16 18:39 | 32.48530 | -96.52768 | 37043 ft | 487 kts | 153° |
| 2026-04-16 18:39 | 32.44057 | -96.48636 | 37005 ft | 487 kts | 152° |
| 2026-04-16 18:40 | 32.38727 | -96.43714 | 37030 ft | 486 kts | 153° |
| 2026-04-16 18:40 | 32.33394 | -96.38797 | 37057 ft | 485 kts | 153° |
| 2026-04-16 18:41 | 32.28059 | -96.33893 | 37059 ft | 486 kts | 153° |
| 2026-04-16 18:41 | 32.22759 | -96.29024 | 37074 ft | 486 kts | 153° |
| 2026-04-16 18:42 | 32.17414 | -96.24123 | 37042 ft | 486 kts | 153° |
| 2026-04-16 18:42 | 32.12077 | -96.19235 | 37060 ft | 486 kts | 153° |
| 2026-04-16 18:43 | 32.06738 | -96.14355 | 37072 ft | 486 kts | 153° |
| 2026-04-16 18:43 | 32.01385 | -96.09468 | 37063 ft | 487 kts | 153° |
| 2026-04-16 18:44 | 31.96033 | -96.04588 | 37067 ft | 486 kts | 153° |
| 2026-04-16 18:44 | 31.90677 | -95.99712 | 37049 ft | 486 kts | 153° |
| 2026-04-16 18:45 | 31.85329 | -95.94853 | 37071 ft | 485 kts | 153° |
| 2026-04-16 18:45 | 31.79996 | -95.90012 | 37085 ft | 484 kts | 153° |
| 2026-04-16 18:46 | 31.74703 | -95.85214 | 37086 ft | 483 kts | 153° |
| 2026-04-16 18:46 | 31.69387 | -95.80405 | 37089 ft | 481 kts | 153° |
| 2026-04-16 18:47 | 31.64078 | -95.75608 | 37079 ft | 480 kts | 153° |
| 2026-04-16 18:47 | 31.58784 | -95.70833 | 37056 ft | 480 kts | 153° |
| 2026-04-16 18:48 | 31.53492 | -95.66068 | 37075 ft | 480 kts | 153° |
| 2026-04-16 18:48 | 31.48188 | -95.61300 | 37090 ft | 480 kts | 153° |
| 2026-04-16 18:49 | 31.42876 | -95.56527 | 37083 ft | 482 kts | 153° |
| 2026-04-16 18:49 | 31.37601 | -95.51763 | 37080 ft | 481 kts | 153° |
| 2026-04-16 18:50 | 31.32276 | -95.47015 | 37086 ft | 482 kts | 153° |
| 2026-04-16 18:50 | 31.26930 | -95.42250 | 37093 ft | 483 kts | 153° |
| 2026-04-16 18:51 | 31.21581 | -95.37476 | 37099 ft | 484 kts | 153° |
| 2026-04-16 18:51 | 31.16225 | -95.32699 | 37079 ft | 485 kts | 153° |
| 2026-04-16 18:52 | 31.10897 | -95.27956 | 37077 ft | 484 kts | 153° |
| 2026-04-16 18:52 | 31.05541 | -95.23195 | 37082 ft | 485 kts | 153° |
| 2026-04-16 18:53 | 31.00158 | -95.18416 | 37081 ft | 485 kts | 153° |
| 2026-04-16 18:53 | 30.94775 | -95.13643 | 37080 ft | 486 kts | 153° |
| 2026-04-16 18:54 | 30.89388 | -95.08875 | 37082 ft | 486 kts | 153° |
| 2026-04-16 18:54 | 30.84001 | -95.04111 | 37061 ft | 487 kts | 152° |
| 2026-04-16 18:55 | 30.78611 | -94.99355 | 37082 ft | 486 kts | 153° |
| 2026-04-16 18:55 | 30.73225 | -94.94606 | 37063 ft | 486 kts | 153° |
| 2026-04-16 18:56 | 30.67847 | -94.89873 | 37074 ft | 486 kts | 153° |
| 2026-04-16 18:56 | 30.62494 | -94.85169 | 37087 ft | 485 kts | 153° |
| 2026-04-16 18:57 | 30.57117 | -94.80455 | 37082 ft | 485 kts | 153° |
| 2026-04-16 18:58 | 30.49031 | -94.73374 | 37086 ft | 485 kts | 153° |
| 2026-04-16 18:58 | 30.43646 | -94.68664 | 37096 ft | 485 kts | 153° |
| 2026-04-16 18:59 | 30.38259 | -94.63956 | 37089 ft | 484 kts | 153° |
| 2026-04-16 18:59 | 30.32880 | -94.59270 | 37092 ft | 484 kts | 153° |
| 2026-04-16 19:00 | 30.27533 | -94.54610 | 37099 ft | 484 kts | 153° |
| 2026-04-16 19:00 | 30.22156 | -94.49934 | 37104 ft | 482 kts | 153° |
| 2026-04-16 19:01 | 30.16793 | -94.45278 | 37105 ft | 481 kts | 153° |
| 2026-04-16 19:01 | 30.11450 | -94.40641 | 37119 ft | 480 kts | 153° |
| 2026-04-16 19:02 | 30.06100 | -94.36011 | 37121 ft | 480 kts | 153° |
| 2026-04-16 19:02 | 30.00749 | -94.31381 | 37107 ft | 480 kts | 153° |
| 2026-04-16 19:03 | 29.95399 | -94.26763 | 37105 ft | 481 kts | 153° |
| 2026-04-16 19:03 | 29.90071 | -94.22171 | 37112 ft | 481 kts | 153° |
| 2026-04-16 19:04 | 29.84709 | -94.17553 | 37102 ft | 481 kts | 153° |
| 2026-04-16 19:04 | 29.79352 | -94.12945 | 37114 ft | 480 kts | 153° |
| 2026-04-16 19:05 | 29.73986 | -94.08337 | 37101 ft | 480 kts | 153° |
| 2026-04-16 19:05 | 29.68558 | -94.03918 | 37104 ft | 471 kts | 160° |
| 2026-04-16 19:05 | 29.65644 | -94.02337 | 37112 ft | 457 kts | 170° |
| 2026-04-16 19:06 | 29.62661 | -94.01086 | 37126 ft | 457 kts | 170° |
| 2026-04-16 19:06 | 29.56661 | -93.98621 | 37123 ft | 458 kts | 170° |
| 2026-04-16 19:07 | 29.50653 | -93.96116 | 37130 ft | 460 kts | 170° |
| 2026-04-16 19:07 | 29.44670 | -93.93586 | 37123 ft | 461 kts | 169° |
| 2026-04-16 19:08 | 29.38638 | -93.91026 | 37118 ft | 462 kts | 169° |
| 2026-04-16 19:08 | 29.32596 | -93.88463 | 37124 ft | 463 kts | 169° |
| 2026-04-16 19:09 | 29.26541 | -93.85899 | 37119 ft | 463 kts | 169° |
| 2026-04-16 19:09 | 29.20481 | -93.83338 | 37123 ft | 463 kts | 169° |
| 2026-04-16 19:10 | 29.14440 | -93.80787 | 37116 ft | 463 kts | 169° |
| 2026-04-16 19:10 | 29.08394 | -93.78237 | 37111 ft | 462 kts | 169° |
| 2026-04-16 19:11 | 29.02393 | -93.75710 | 37116 ft | 462 kts | 169° |
| 2026-04-16 19:11 | 28.96359 | -93.73174 | 37115 ft | 462 kts | 170° |
| 2026-04-16 19:12 | 28.90333 | -93.70643 | 37077 ft | 462 kts | 169° |
| 2026-04-16 19:12 | 28.84295 | -93.68109 | 37110 ft | 461 kts | 169° |
| 2026-04-16 19:13 | 28.78267 | -93.65584 | 37114 ft | 461 kts | 169° |
| 2026-04-16 19:13 | 28.72238 | -93.63060 | 37114 ft | 462 kts | 169° |
| 2026-04-16 19:14 | 28.66201 | -93.60540 | 37112 ft | 462 kts | 169° |
| 2026-04-16 19:14 | 28.60198 | -93.58033 | 37096 ft | 462 kts | 169° |
| 2026-04-16 19:15 | 28.54158 | -93.55512 | 37106 ft | 462 kts | 169° |
| 2026-04-16 19:15 | 28.48115 | -93.52999 | 37118 ft | 462 kts | 169° |
| 2026-04-16 19:16 | 28.42072 | -93.50485 | 37110 ft | 462 kts | 169° |
| 2026-04-16 19:16 | 28.36064 | -93.47988 | 37118 ft | 462 kts | 169° |
| 2026-04-16 19:17 | 28.30016 | -93.45479 | 37097 ft | 462 kts | 169° |
| 2026-04-16 19:17 | 28.23970 | -93.42973 | 37112 ft | 462 kts | 169° |
| 2026-04-16 19:18 | 28.17933 | -93.40474 | 37115 ft | 462 kts | 169° |
| 2026-04-16 19:18 | 28.11884 | -93.37972 | 37115 ft | 463 kts | 169° |
| 2026-04-16 19:19 | 28.05834 | -93.35477 | 37112 ft | 463 kts | 169° |
| 2026-04-16 19:19 | 27.99772 | -93.32977 | 37098 ft | 462 kts | 169° |
| 2026-04-16 19:20 | 27.93727 | -93.30486 | 37106 ft | 462 kts | 169° |
| 2026-04-16 19:20 | 27.87727 | -93.28016 | 37115 ft | 462 kts | 169° |
| 2026-04-16 19:21 | 27.81684 | -93.25534 | 37114 ft | 462 kts | 169° |
| 2026-04-16 19:21 | 27.75636 | -93.23050 | 37107 ft | 462 kts | 169° |
| 2026-04-16 19:22 | 27.69594 | -93.20573 | 37113 ft | 463 kts | 169° |
| 2026-04-16 19:22 | 27.63542 | -93.18092 | 37108 ft | 463 kts | 169° |
| 2026-04-16 19:23 | 27.57476 | -93.15604 | 37110 ft | 463 kts | 169° |
| 2026-04-16 19:23 | 27.51424 | -93.13126 | 37114 ft | 463 kts | 169° |
| 2026-04-16 19:24 | 27.45400 | -93.10668 | 37116 ft | 463 kts | 169° |
| 2026-04-16 19:24 | 27.39352 | -93.08212 | 37101 ft | 462 kts | 168° |
| 2026-04-16 19:25 | 27.33313 | -93.05760 | 37117 ft | 461 kts | 168° |
| 2026-04-16 19:25 | 27.27272 | -93.03312 | 37094 ft | 462 kts | 168° |
| 2026-04-16 19:26 | 27.21221 | -93.00864 | 37107 ft | 462 kts | 168° |
| 2026-04-16 19:26 | 27.15206 | -92.98436 | 37118 ft | 462 kts | 168° |
| 2026-04-16 19:27 | 27.09153 | -92.95987 | 37107 ft | 462 kts | 168° |
| 2026-04-16 19:27 | 27.03093 | -92.93538 | 37112 ft | 462 kts | 168° |
| 2026-04-16 19:28 | 26.98063 | -92.91509 | 37112 ft | 463 kts | 168° |
| 2026-04-16 19:28 | 26.91990 | -92.89062 | 37115 ft | 464 kts | 168° |
| 2026-04-16 19:29 | 26.85910 | -92.86615 | 37108 ft | 465 kts | 168° |
| 2026-04-16 19:29 | 26.79836 | -92.84067 | 37096 ft | 471 kts | 161° |
| 2026-04-16 19:30 | 26.74115 | -92.80362 | 37109 ft | 477 kts | 156° |
| 2026-04-16 19:30 | 26.68443 | -92.76470 | 37108 ft | 477 kts | 156° |
| 2026-04-16 19:31 | 26.62773 | -92.72623 | 37109 ft | 477 kts | 156° |
| 2026-04-16 19:31 | 26.57120 | -92.68836 | 37104 ft | 476 kts | 156° |
| 2026-04-16 19:32 | 26.51432 | -92.65048 | 37100 ft | 475 kts | 156° |
| 2026-04-16 19:32 | 26.45749 | -92.61267 | 37102 ft | 475 kts | 156° |
| 2026-04-16 19:33 | 26.40080 | -92.57497 | 37110 ft | 474 kts | 156° |
| 2026-04-16 19:33 | 26.34406 | -92.53728 | 37103 ft | 474 kts | 156° |
| 2026-04-16 19:34 | 26.28737 | -92.49965 | 37102 ft | 473 kts | 156° |
| 2026-04-16 19:34 | 26.23079 | -92.46216 | 37096 ft | 474 kts | 156° |
| 2026-04-16 19:35 | 26.17416 | -92.42468 | 37099 ft | 473 kts | 156° |
| 2026-04-16 19:35 | 26.11759 | -92.38728 | 37105 ft | 473 kts | 156° |
| 2026-04-16 19:36 | 26.06131 | -92.35011 | 37105 ft | 473 kts | 156° |
| 2026-04-16 19:36 | 26.00471 | -92.31277 | 37101 ft | 473 kts | 156° |
| 2026-04-16 19:37 | 25.94810 | -92.27547 | 37098 ft | 473 kts | 156° |
| 2026-04-16 19:37 | 25.89152 | -92.23821 | 37098 ft | 473 kts | 155° |
| 2026-04-16 19:38 | 25.83487 | -92.20097 | 37103 ft | 472 kts | 155° |
| 2026-04-16 19:38 | 25.77826 | -92.16379 | 37098 ft | 473 kts | 155° |
| 2026-04-16 19:39 | 25.72199 | -92.12688 | 37106 ft | 473 kts | 155° |
| 2026-04-16 19:39 | 25.66520 | -92.08965 | 37101 ft | 474 kts | 155° |
| 2026-04-16 19:40 | 25.60841 | -92.05248 | 37084 ft | 474 kts | 155° |
| 2026-04-16 19:40 | 25.55165 | -92.01537 | 37097 ft | 474 kts | 155° |
| 2026-04-16 19:41 | 25.49485 | -91.97827 | 37101 ft | 473 kts | 155° |
| 2026-04-16 19:41 | 25.43810 | -91.94125 | 37097 ft | 473 kts | 155° |
| 2026-04-16 19:42 | 25.38174 | -91.90452 | 37086 ft | 473 kts | 155° |
| 2026-04-16 19:42 | 25.32497 | -91.86756 | 37096 ft | 473 kts | 155° |
| 2026-04-16 19:43 | 25.26830 | -91.83071 | 37093 ft | 472 kts | 155° |
| 2026-04-16 19:43 | 25.21165 | -91.79392 | 37096 ft | 472 kts | 155° |
| 2026-04-16 19:44 | 25.15502 | -91.75717 | 37095 ft | 472 kts | 155° |
| 2026-04-16 19:44 | 25.09831 | -91.72042 | 37098 ft | 472 kts | 155° |
| 2026-04-16 19:45 | 25.04160 | -91.68371 | 37092 ft | 473 kts | 155° |
| 2026-04-16 19:45 | 24.98489 | -91.64704 | 37085 ft | 473 kts | 155° |
| 2026-04-16 19:46 | 24.92819 | -91.61042 | 37093 ft | 473 kts | 155° |
| 2026-04-16 19:46 | 24.87128 | -91.57369 | 37091 ft | 473 kts | 155° |
| 2026-04-16 19:47 | 24.81445 | -91.53705 | 37093 ft | 473 kts | 155° |
| 2026-04-16 19:47 | 24.75764 | -91.50044 | 37085 ft | 473 kts | 155° |
| 2026-04-16 19:48 | 24.70084 | -91.46391 | 37093 ft | 473 kts | 155° |
| 2026-04-16 19:48 | 24.64434 | -91.42762 | 37087 ft | 473 kts | 155° |
| 2026-04-16 19:49 | 24.58748 | -91.39111 | 37090 ft | 473 kts | 155° |
| 2026-04-16 19:49 | 24.53027 | -91.35442 | 37085 ft | 473 kts | 155° |
| 2026-04-16 19:50 | 24.47295 | -91.32030 | 37081 ft | 469 kts | 161° |
| 2026-04-16 19:50 | 24.41320 | -91.29214 | 37084 ft | 467 kts | 162° |
| 2026-04-16 19:51 | 24.35339 | -91.26404 | 37077 ft | 468 kts | 161° |
| 2026-04-16 19:51 | 24.29384 | -91.23514 | 37081 ft | 468 kts | 161° |
| 2026-04-16 19:52 | 24.23434 | -91.20616 | 37089 ft | 468 kts | 161° |
| 2026-04-16 19:52 | 24.17475 | -91.17739 | 37081 ft | 468 kts | 161° |
| 2026-04-16 19:53 | 24.11506 | -91.14884 | 37087 ft | 468 kts | 161° |
| 2026-04-16 19:53 | 24.05537 | -91.12022 | 37077 ft | 468 kts | 161° |
| 2026-04-16 19:54 | 23.99606 | -91.09156 | 37078 ft | 469 kts | 161° |
| 2026-04-16 19:54 | 23.93631 | -91.06273 | 37078 ft | 469 kts | 161° |
| 2026-04-16 19:55 | 23.87642 | -91.03408 | 37073 ft | 470 kts | 161° |
| 2026-04-16 19:55 | 23.81645 | -91.00548 | 37076 ft | 470 kts | 161° |
| 2026-04-16 19:56 | 23.75645 | -90.97673 | 37087 ft | 471 kts | 161° |
| 2026-04-16 19:56 | 23.69645 | -90.94790 | 37071 ft | 471 kts | 161° |
| 2026-04-16 19:57 | 23.63639 | -90.91920 | 37080 ft | 471 kts | 161° |
| 2026-04-16 19:57 | 23.57621 | -90.89057 | 37072 ft | 472 kts | 161° |
| 2026-04-16 19:58 | 23.51603 | -90.86189 | 37072 ft | 472 kts | 161° |
| 2026-04-16 19:58 | 23.45616 | -90.83328 | 37068 ft | 472 kts | 161° |
| 2026-04-16 19:59 | 23.39598 | -90.80465 | 37073 ft | 472 kts | 161° |
| 2026-04-16 19:59 | 23.33592 | -90.77609 | 37072 ft | 471 kts | 161° |
| 2026-04-16 20:00 | 23.24585 | -90.73323 | 37069 ft | 470 kts | 161° |
| 2026-04-16 20:00 | 23.18587 | -90.70464 | 37074 ft | 470 kts | 161° |
| 2026-04-16 20:01 | 23.12589 | -90.67614 | 37072 ft | 471 kts | 161° |
| 2026-04-16 20:01 | 23.06585 | -90.64764 | 37063 ft | 471 kts | 161° |
| 2026-04-16 20:02 | 23.00572 | -90.61910 | 37068 ft | 472 kts | 161° |
| 2026-04-16 20:02 | 22.94551 | -90.59055 | 37063 ft | 472 kts | 161° |
| 2026-04-16 20:03 | 22.88522 | -90.56202 | 37063 ft | 473 kts | 161° |
| 2026-04-16 20:03 | 22.82488 | -90.53344 | 37062 ft | 474 kts | 161° |
| 2026-04-16 20:04 | 22.76435 | -90.50482 | 37049 ft | 474 kts | 161° |
| 2026-04-16 20:04 | 22.70417 | -90.47640 | 37061 ft | 475 kts | 161° |
| 2026-04-16 20:05 | 22.64362 | -90.44782 | 37056 ft | 475 kts | 161° |
| 2026-04-16 20:05 | 22.58302 | -90.41923 | 37057 ft | 475 kts | 161° |
| 2026-04-16 20:06 | 22.52234 | -90.39065 | 37056 ft | 475 kts | 161° |
| 2026-04-16 20:06 | 22.46172 | -90.36217 | 37052 ft | 475 kts | 161° |
| 2026-04-16 20:07 | 22.40107 | -90.33372 | 37048 ft | 475 kts | 161° |
| 2026-04-16 20:07 | 22.34034 | -90.30524 | 37059 ft | 476 kts | 161° |
| 2026-04-16 20:08 | 22.27950 | -90.27680 | 37050 ft | 476 kts | 161° |
| 2026-04-16 20:08 | 22.21856 | -90.24836 | 37049 ft | 477 kts | 161° |
| 2026-04-16 20:09 | 22.15797 | -90.22010 | 37044 ft | 477 kts | 161° |
| 2026-04-16 20:09 | 22.09692 | -90.19164 | 37038 ft | 478 kts | 161° |
| 2026-04-16 20:10 | 22.03589 | -90.16320 | 37042 ft | 478 kts | 161° |
| 2026-04-16 20:10 | 21.97480 | -90.13476 | 37046 ft | 478 kts | 161° |
| 2026-04-16 20:11 | 21.91359 | -90.10635 | 37048 ft | 479 kts | 161° |
| 2026-04-16 20:11 | 21.85231 | -90.07788 | 37047 ft | 479 kts | 161° |
| 2026-04-16 20:12 | 21.79105 | -90.04944 | 37036 ft | 480 kts | 161° |
| 2026-04-16 20:12 | 21.72972 | -90.02100 | 37044 ft | 480 kts | 161° |
| 2026-04-16 20:13 | 21.66839 | -89.99262 | 37049 ft | 480 kts | 161° |
| 2026-04-16 20:13 | 21.60748 | -89.96453 | 37051 ft | 479 kts | 161° |
| 2026-04-16 20:14 | 21.54621 | -89.93631 | 37051 ft | 479 kts | 161° |
| 2026-04-16 20:14 | 21.49524 | -89.91287 | 37052 ft | 479 kts | 161° |
| 2026-04-16 20:15 | 21.43404 | -89.88468 | 37047 ft | 478 kts | 161° |
| 2026-04-16 20:15 | 21.37287 | -89.85655 | 37049 ft | 478 kts | 161° |
| 2026-04-16 20:16 | 21.31177 | -89.82846 | 37051 ft | 478 kts | 161° |
| 2026-04-16 20:16 | 21.25068 | -89.80035 | 37044 ft | 478 kts | 161° |
| 2026-04-16 20:17 | 21.18960 | -89.77210 | 37043 ft | 478 kts | 161° |
| 2026-04-16 20:17 | 21.12844 | -89.74383 | 37031 ft | 479 kts | 161° |
| 2026-04-16 20:18 | 21.06719 | -89.71556 | 37029 ft | 479 kts | 161° |
| 2026-04-16 20:18 | 21.00582 | -89.68726 | 37008 ft | 480 kts | 161° |
| 2026-04-16 20:19 | 20.94493 | -89.65921 | 37003 ft | 480 kts | 161° |
| 2026-04-16 20:19 | 20.88303 | -89.63268 | 37004 ft | 479 kts | 164° |
| 2026-04-16 20:20 | 20.82043 | -89.60822 | 37012 ft | 478 kts | 164° |
| 2026-04-16 20:20 | 20.75789 | -89.58361 | 37023 ft | 478 kts | 163° |
| 2026-04-16 20:21 | 20.69552 | -89.55865 | 37019 ft | 478 kts | 163° |
| 2026-04-16 20:21 | 20.63366 | -89.53378 | 37011 ft | 478 kts | 163° |
| 2026-04-16 20:22 | 20.57108 | -89.50868 | 37014 ft | 477 kts | 163° |
| 2026-04-16 20:22 | 20.50940 | -89.48397 | 37012 ft | 476 kts | 163° |
| 2026-04-16 20:23 | 20.44730 | -89.45909 | 36990 ft | 477 kts | 163° |
| 2026-04-16 20:23 | 20.38537 | -89.43386 | 37008 ft | 476 kts | 163° |
| 2026-04-16 20:24 | 20.32333 | -89.40883 | 36989 ft | 477 kts | 163° |
| 2026-04-16 20:24 | 20.26119 | -89.38404 | 36998 ft | 477 kts | 163° |
| 2026-04-16 20:25 | 20.19898 | -89.35920 | 37003 ft | 477 kts | 163° |
| 2026-04-16 20:25 | 20.13678 | -89.33434 | 36998 ft | 477 kts | 163° |
| 2026-04-16 20:26 | 20.07454 | -89.30951 | 36999 ft | 478 kts | 163° |
| 2026-04-16 20:26 | 20.01227 | -89.28467 | 37001 ft | 478 kts | 163° |
| 2026-04-16 20:27 | 19.95040 | -89.26005 | 36994 ft | 478 kts | 163° |
| 2026-04-16 20:27 | 19.88791 | -89.23533 | 36986 ft | 478 kts | 163° |
| 2026-04-16 20:28 | 19.82549 | -89.21064 | 36991 ft | 478 kts | 163° |
| 2026-04-16 20:28 | 19.76309 | -89.18595 | 36993 ft | 478 kts | 163° |
| 2026-04-16 20:29 | 19.70071 | -89.16132 | 37000 ft | 479 kts | 163° |
| 2026-04-16 20:29 | 19.63831 | -89.13658 | 36997 ft | 479 kts | 162° |
| 2026-04-16 20:30 | 19.57597 | -89.11183 | 37000 ft | 478 kts | 162° |
| 2026-04-16 20:30 | 19.51354 | -89.08707 | 36993 ft | 479 kts | 163° |
| 2026-04-16 20:31 | 19.45158 | -89.06252 | 36990 ft | 478 kts | 162° |
| 2026-04-16 20:31 | 19.38925 | -89.03786 | 36990 ft | 479 kts | 163° |
| 2026-04-16 20:32 | 19.32687 | -89.01323 | 36996 ft | 478 kts | 163° |
| 2026-04-16 20:32 | 19.26439 | -88.98858 | 36995 ft | 478 kts | 163° |
| 2026-04-16 20:33 | 19.20200 | -88.96398 | 36994 ft | 478 kts | 163° |
| 2026-04-16 20:33 | 19.13967 | -88.93943 | 36992 ft | 478 kts | 163° |
| 2026-04-16 20:34 | 19.07718 | -88.91481 | 36993 ft | 479 kts | 163° |
| 2026-04-16 20:34 | 19.01468 | -88.89024 | 36992 ft | 479 kts | 163° |
| 2026-04-16 20:35 | 18.95260 | -88.86583 | 37001 ft | 480 kts | 163° |
| 2026-04-16 20:35 | 18.88995 | -88.84119 | 36990 ft | 480 kts | 163° |
| 2026-04-16 20:36 | 18.82739 | -88.81665 | 37006 ft | 480 kts | 163° |
| 2026-04-16 20:36 | 18.76468 | -88.79206 | 36992 ft | 481 kts | 163° |
| 2026-04-16 20:37 | 18.70189 | -88.76747 | 37002 ft | 480 kts | 163° |
| 2026-04-16 20:37 | 18.63921 | -88.74292 | 37004 ft | 481 kts | 163° |
| 2026-04-16 20:38 | 18.57647 | -88.71836 | 37004 ft | 481 kts | 163° |
| 2026-04-16 20:38 | 18.51402 | -88.69393 | 37007 ft | 482 kts | 163° |
| 2026-04-16 20:39 | 18.45109 | -88.66935 | 36999 ft | 482 kts | 163° |
| 2026-04-16 20:39 | 18.38823 | -88.64480 | 36993 ft | 482 kts | 163° |
| 2026-04-16 20:40 | 18.32532 | -88.62012 | 36998 ft | 482 kts | 162° |
| 2026-04-16 20:40 | 18.26238 | -88.59540 | 36999 ft | 483 kts | 162° |
| 2026-04-16 20:41 | 18.19945 | -88.57072 | 36996 ft | 483 kts | 162° |
| 2026-04-16 20:41 | 18.13647 | -88.54614 | 36997 ft | 483 kts | 163° |
| 2026-04-16 20:42 | 18.07341 | -88.52177 | 36999 ft | 483 kts | 163° |
| 2026-04-16 20:42 | 18.01033 | -88.49743 | 36991 ft | 482 kts | 163° |
| 2026-04-16 20:43 | 17.94729 | -88.47308 | 36994 ft | 482 kts | 163° |
| 2026-04-16 20:43 | 17.88431 | -88.44862 | 36996 ft | 482 kts | 162° |
| 2026-04-16 20:44 | 17.82193 | -88.42417 | 37002 ft | 482 kts | 162° |
| 2026-04-16 20:44 | 17.75900 | -88.39952 | 37000 ft | 482 kts | 162° |
| 2026-04-16 20:45 | 17.69610 | -88.37493 | 37002 ft | 482 kts | 162° |
| 2026-04-16 20:45 | 17.63304 | -88.35032 | 37004 ft | 483 kts | 162° |
| 2026-04-16 20:46 | 17.57030 | -88.32584 | 37010 ft | 483 kts | 162° |
| 2026-04-16 20:46 | 17.50714 | -88.30135 | 37009 ft | 483 kts | 163° |
| 2026-04-16 20:47 | 17.44389 | -88.27741 | 37009 ft | 484 kts | 163° |
| 2026-04-16 20:47 | 17.38050 | -88.25346 | 37004 ft | 484 kts | 162° |
| 2026-04-16 20:48 | 17.31716 | -88.22945 | 37002 ft | 484 kts | 162° |
| 2026-04-16 20:48 | 17.25424 | -88.20561 | 37003 ft | 483 kts | 162° |
| 2026-04-16 20:49 | 17.19096 | -88.18165 | 37003 ft | 483 kts | 162° |
| 2026-04-16 20:49 | 17.12777 | -88.15773 | 36995 ft | 482 kts | 163° |
| 2026-04-16 20:50 | 17.06469 | -88.13394 | 36996 ft | 482 kts | 163° |
| 2026-04-16 20:50 | 17.00159 | -88.11016 | 36996 ft | 482 kts | 162° |
| 2026-04-16 20:51 | 16.93845 | -88.08636 | 36994 ft | 481 kts | 162° |
| 2026-04-16 20:51 | 16.87541 | -88.06280 | 36990 ft | 481 kts | 163° |
| 2026-04-16 20:52 | 16.81259 | -88.03993 | 36985 ft | 481 kts | 163° |
| 2026-04-16 20:52 | 16.74931 | -88.01698 | 36984 ft | 481 kts | 163° |
| 2026-04-16 20:53 | 16.68600 | -87.99394 | 36986 ft | 482 kts | 162° |
| 2026-04-16 20:53 | 16.62257 | -87.97084 | 36987 ft | 483 kts | 162° |
| 2026-04-16 20:54 | 16.55912 | -87.94774 | 36984 ft | 483 kts | 162° |
| 2026-04-16 20:54 | 16.49553 | -87.92460 | 36982 ft | 484 kts | 162° |
| 2026-04-16 20:55 | 16.43197 | -87.90147 | 36981 ft | 484 kts | 162° |
| 2026-04-16 20:55 | 16.36834 | -87.87835 | 36979 ft | 484 kts | 162° |
| 2026-04-16 20:56 | 16.30522 | -87.85546 | 36982 ft | 483 kts | 162° |
| 2026-04-16 20:56 | 16.24173 | -87.83243 | 36971 ft | 483 kts | 162° |
| 2026-04-16 20:57 | 16.17828 | -87.80941 | 36962 ft | 482 kts | 162° |
| 2026-04-16 20:57 | 16.11497 | -87.78644 | 36967 ft | 481 kts | 162° |
| 2026-04-16 20:58 | 16.05205 | -87.76249 | 36967 ft | 481 kts | 161° |
| 2026-04-16 20:58 | 15.98944 | -87.73806 | 36967 ft | 481 kts | 161° |
| 2026-04-16 20:59 | 15.92687 | -87.71370 | 36968 ft | 480 kts | 161° |
| 2026-04-16 20:59 | 15.86461 | -87.68963 | 36959 ft | 481 kts | 161° |
| 2026-04-16 21:00 | 15.80190 | -87.66545 | 36965 ft | 480 kts | 161° |
| 2026-04-16 21:00 | 15.73915 | -87.64126 | 36967 ft | 481 kts | 161° |
| 2026-04-16 21:01 | 15.67632 | -87.61707 | 36970 ft | 482 kts | 161° |
| 2026-04-16 21:01 | 15.61337 | -87.59286 | 36977 ft | 483 kts | 161° |
| 2026-04-16 21:02 | 15.55038 | -87.56864 | 36952 ft | 483 kts | 161° |
| 2026-04-16 21:03 | 15.45585 | -87.53231 | 36974 ft | 483 kts | 161° |
| 2026-04-16 21:03 | 15.39324 | -87.50829 | 36984 ft | 482 kts | 161° |
| 2026-04-16 21:04 | 15.33039 | -87.48416 | 36988 ft | 481 kts | 161° |
| 2026-04-16 21:04 | 15.26759 | -87.46008 | 36986 ft | 481 kts | 161° |
| 2026-04-16 21:05 | 15.21533 | -87.44006 | 36980 ft | 481 kts | 161° |
| 2026-04-16 21:05 | 15.15265 | -87.41605 | 36982 ft | 480 kts | 161° |
| 2026-04-16 21:06 | 15.08998 | -87.39206 | 36980 ft | 480 kts | 161° |
| 2026-04-16 21:06 | 15.02745 | -87.36814 | 36985 ft | 479 kts | 161° |
| 2026-04-16 21:07 | 14.96498 | -87.34425 | 36979 ft | 478 kts | 161° |
| 2026-04-16 21:07 | 14.90263 | -87.32044 | 36988 ft | 477 kts | 161° |
| 2026-04-16 21:08 | 14.84027 | -87.29663 | 36994 ft | 477 kts | 161° |
| 2026-04-16 21:08 | 14.77782 | -87.27281 | 36990 ft | 478 kts | 161° |
| 2026-04-16 21:09 | 14.71527 | -87.24897 | 37020 ft | 479 kts | 161° |
| 2026-04-16 21:09 | 14.65261 | -87.22508 | 37015 ft | 481 kts | 161° |
| 2026-04-16 21:10 | 14.58964 | -87.20111 | 37028 ft | 483 kts | 161° |
| 2026-04-16 21:10 | 14.52653 | -87.17709 | 37026 ft | 484 kts | 161° |
| 2026-04-16 21:11 | 14.46328 | -87.15301 | 37040 ft | 485 kts | 161° |
| 2026-04-16 21:11 | 14.40064 | -87.12849 | 37042 ft | 485 kts | 159° |
| 2026-04-16 21:12 | 14.33827 | -87.10172 | 37059 ft | 485 kts | 159° |
| 2026-04-16 21:12 | 14.27606 | -87.07471 | 37052 ft | 485 kts | 159° |
| 2026-04-16 21:13 | 14.21379 | -87.04799 | 37053 ft | 484 kts | 159° |
| 2026-04-16 21:13 | 14.15149 | -87.02144 | 37053 ft | 484 kts | 159° |
| 2026-04-16 21:14 | 14.08920 | -86.99502 | 37062 ft | 483 kts | 159° |
| 2026-04-16 21:14 | 14.02755 | -86.96886 | 37048 ft | 481 kts | 159° |
| 2026-04-16 21:15 | 13.96565 | -86.94258 | 37019 ft | 481 kts | 159° |
| 2026-04-16 21:15 | 13.90365 | -86.91630 | 36979 ft | 482 kts | 159° |
| 2026-04-16 21:16 | 13.84165 | -86.89003 | 36974 ft | 482 kts | 159° |
| 2026-04-16 21:16 | 13.77965 | -86.86374 | 36980 ft | 481 kts | 159° |
| 2026-04-16 21:17 | 13.71770 | -86.83749 | 36944 ft | 482 kts | 159° |
| 2026-04-16 21:17 | 13.65566 | -86.81125 | 36945 ft | 482 kts | 159° |
| 2026-04-16 21:18 | 13.59358 | -86.78501 | 36937 ft | 482 kts | 159° |
| 2026-04-16 21:18 | 13.53149 | -86.75875 | 36933 ft | 482 kts | 159° |
| 2026-04-16 21:19 | 13.46951 | -86.73255 | 36917 ft | 482 kts | 158° |
| 2026-04-16 21:19 | 13.40748 | -86.70634 | 36923 ft | 482 kts | 158° |
| 2026-04-16 21:20 | 13.34527 | -86.68013 | 36931 ft | 483 kts | 158° |
| 2026-04-16 21:20 | 13.28298 | -86.65387 | 36903 ft | 484 kts | 158° |
| 2026-04-16 21:21 | 13.22060 | -86.62757 | 36912 ft | 485 kts | 158° |
| 2026-04-16 21:21 | 13.15852 | -86.60139 | 36911 ft | 485 kts | 158° |
| 2026-04-16 21:22 | 13.09603 | -86.57508 | 36907 ft | 486 kts | 158° |
| 2026-04-16 21:22 | 13.03349 | -86.54876 | 36876 ft | 486 kts | 158° |
| 2026-04-16 21:23 | 12.97099 | -86.52245 | 36878 ft | 485 kts | 158° |
| 2026-04-16 21:23 | 12.90855 | -86.49620 | 36878 ft | 485 kts | 158° |
| 2026-04-16 21:24 | 12.84612 | -86.46997 | 36873 ft | 484 kts | 158° |
| 2026-04-16 21:24 | 12.78380 | -86.44377 | 36876 ft | 484 kts | 158° |
| 2026-04-16 21:25 | 12.72142 | -86.41755 | 36854 ft | 483 kts | 158° |
| 2026-04-16 21:25 | 12.65923 | -86.39145 | 36849 ft | 483 kts | 158° |
| 2026-04-16 21:26 | 12.59715 | -86.36542 | 36839 ft | 482 kts | 158° |
| 2026-04-16 21:26 | 12.53515 | -86.33943 | 36843 ft | 482 kts | 158° |
| 2026-04-16 21:27 | 12.47282 | -86.31330 | 36279 ft | 488 kts | 157° |
| 2026-04-16 21:27 | 12.44149 | -86.30016 | 35735 ft | 486 kts | 157° |
| 2026-04-16 21:27 | 12.41011 | -86.28702 | 35092 ft | 488 kts | 157° |
| 2026-04-16 21:27 | 12.37869 | -86.27387 | 34418 ft | 490 kts | 156° |
| 2026-04-16 21:28 | 12.34699 | -86.26063 | 33716 ft | 493 kts | 156° |
| 2026-04-16 21:28 | 12.31516 | -86.24733 | 32936 ft | 495 kts | 155° |
| 2026-04-16 21:28 | 12.28369 | -86.23414 | 32256 ft | 496 kts | 155° |
| 2026-04-16 21:28 | 12.25188 | -86.22081 | 31767 ft | 492 kts | 155° |
| 2026-04-16 21:29 | 12.22032 | -86.20760 | 31253 ft | 488 kts | 155° |
| 2026-04-16 21:29 | 12.18897 | -86.19449 | 30736 ft | 486 kts | 154° |
| 2026-04-16 21:29 | 12.15775 | -86.18144 | 30233 ft | 483 kts | 154° |
| 2026-04-16 21:29 | 12.12672 | -86.16851 | 29614 ft | 481 kts | 154° |
| 2026-04-16 21:30 | 12.09561 | -86.15573 | 28886 ft | 481 kts | 155° |
| 2026-04-16 21:30 | 12.06458 | -86.14314 | 28332 ft | 477 kts | 155° |
| 2026-04-16 21:30 | 12.03385 | -86.13071 | 27790 ft | 473 kts | 155° |
| 2026-04-16 21:30 | 12.00344 | -86.11841 | 27271 ft | 468 kts | 155° |
| 2026-04-16 21:31 | 11.97328 | -86.10619 | 26750 ft | 464 kts | 155° |
| 2026-04-16 21:31 | 11.94343 | -86.09407 | 26262 ft | 459 kts | 156° |
| 2026-04-16 21:31 | 11.91386 | -86.08206 | 25755 ft | 456 kts | 156° |
| 2026-04-16 21:31 | 11.88448 | -86.07011 | 25240 ft | 453 kts | 156° |
| 2026-04-16 21:32 | 11.85528 | -86.05823 | 24747 ft | 450 kts | 156° |
| 2026-04-16 21:32 | 11.82636 | -86.04647 | 24248 ft | 447 kts | 156° |
| 2026-04-16 21:32 | 11.79755 | -86.03477 | 23753 ft | 444 kts | 157° |
| 2026-04-16 21:32 | 11.76895 | -86.02316 | 23217 ft | 441 kts | 157° |
| 2026-04-16 21:33 | 11.74052 | -86.01162 | 22668 ft | 438 kts | 157° |
| 2026-04-16 21:33 | 11.71268 | -86.00032 | 22182 ft | 433 kts | 157° |
| 2026-04-16 21:33 | 11.68448 | -85.98887 | 22699 ft | 428 kts | 158° |
| 2026-04-16 21:33 | 11.65743 | -85.97789 | 22340 ft | 421 kts | 157° |
| 2026-04-16 21:34 | 11.63037 | -85.96691 | 21939 ft | 416 kts | 157° |
| 2026-04-16 21:34 | 11.60368 | -85.95608 | 21526 ft | 411 kts | 157° |
| 2026-04-16 21:34 | 11.57721 | -85.94535 | 20146 ft | 406 kts | 156° |
| 2026-04-16 21:34 | 11.55103 | -85.93472 | 19548 ft | 403 kts | 157° |
| 2026-04-16 21:35 | 11.52515 | -85.92423 | 18978 ft | 396 kts | 157° |
| 2026-04-16 21:35 | 11.49979 | -85.91394 | 18677 ft | 389 kts | 158° |
| 2026-04-16 21:35 | 11.47483 | -85.90385 | 18428 ft | 384 kts | 157° |
| 2026-04-16 21:35 | 11.45007 | -85.89383 | 18043 ft | 381 kts | 157° |
| 2026-04-16 21:36 | 11.42544 | -85.88387 | 17585 ft | 380 kts | 157° |
| 2026-04-16 21:36 | 11.40093 | -85.87394 | 17140 ft | 378 kts | 157° |
| 2026-04-16 21:36 | 11.37652 | -85.86406 | 16698 ft | 376 kts | 156° |
| 2026-04-16 21:36 | 11.35231 | -85.85426 | 16268 ft | 373 kts | 158° |
| 2026-04-16 21:37 | 11.32821 | -85.84451 | 15836 ft | 372 kts | 157° |
| 2026-04-16 21:37 | 11.30425 | -85.83479 | 15409 ft | 370 kts | 157° |
| 2026-04-16 21:37 | 11.28037 | -85.82513 | 14984 ft | 369 kts | 157° |
| 2026-04-16 21:37 | 11.25658 | -85.81552 | 14546 ft | 367 kts | 157° |
| 2026-04-16 21:38 | 11.23285 | -85.80593 | 14112 ft | 366 kts | 157° |
| 2026-04-16 21:38 | 11.20895 | -85.79723 | 13667 ft | 365 kts | 166° |
| 2026-04-16 21:38 | 11.18385 | -85.79557 | 13357 ft | 360 kts | 179° |
| 2026-04-16 21:38 | 11.15889 | -85.79590 | 12917 ft | 357 kts | 180° |
| 2026-04-16 21:39 | 11.13450 | -85.79620 | 12510 ft | 354 kts | 180° |
| 2026-04-16 21:39 | 11.10995 | -85.79633 | 12113 ft | 351 kts | 179° |
| 2026-04-16 21:39 | 11.08559 | -85.79632 | 11694 ft | 348 kts | 179° |
| 2026-04-16 21:39 | 11.06147 | -85.79625 | 11288 ft | 346 kts | 179° |
| 2026-04-16 21:40 | 11.03743 | -85.79610 | 10874 ft | 343 kts | 179° |
| 2026-04-16 21:40 | 11.01380 | -85.79555 | 10697 ft | 334 kts | 178° |
| 2026-04-16 21:40 | 10.99092 | -85.79488 | 10543 ft | 324 kts | 178° |
| 2026-04-16 21:40 | 10.96869 | -85.79421 | 10404 ft | 315 kts | 178° |
| 2026-04-16 21:41 | 10.94707 | -85.79359 | 10268 ft | 306 kts | 178° |
| 2026-04-16 21:41 | 10.92607 | -85.79300 | 10152 ft | 298 kts | 178° |
| 2026-04-16 21:41 | 10.90564 | -85.79245 | 10011 ft | 290 kts | 178° |
| 2026-04-16 21:41 | 10.88549 | -85.79190 | 9739 ft | 288 kts | 178° |
| 2026-04-16 21:42 | 10.86547 | -85.79137 | 9447 ft | 287 kts | 178° |
| 2026-04-16 21:42 | 10.84554 | -85.79085 | 9158 ft | 285 kts | 178° |
| 2026-04-16 21:42 | 10.82573 | -85.79032 | 8850 ft | 284 kts | 178° |
| 2026-04-16 21:42 | 10.80601 | -85.78978 | 8566 ft | 283 kts | 177° |
| 2026-04-16 21:43 | 10.78640 | -85.78926 | 8283 ft | 281 kts | 178° |
| 2026-04-16 21:43 | 10.76695 | -85.78875 | 8008 ft | 276 kts | 177° |
| 2026-04-16 21:43 | 10.74803 | -85.78826 | 7718 ft | 269 kts | 178° |
| 2026-04-16 21:43 | 10.72931 | -85.78776 | 7457 ft | 268 kts | 176° |
| 2026-04-16 21:44 | 10.71072 | -85.78727 | 7199 ft | 266 kts | 176° |
| 2026-04-16 21:44 | 10.69269 | -85.78681 | 7090 ft | 259 kts | 177° |
| 2026-04-16 21:44 | 10.67487 | -85.78635 | 6933 ft | 254 kts | 177° |
| 2026-04-16 21:44 | 10.65717 | -85.78614 | 6685 ft | 253 kts | 178° |
| 2026-04-16 21:45 | 10.63964 | -85.78603 | 6440 ft | 251 kts | 177° |
| 2026-04-16 21:45 | 10.62219 | -85.78590 | 6182 ft | 251 kts | 177° |
| 2026-04-16 21:45 | 10.60471 | -85.78580 | 5918 ft | 251 kts | 176° |
| 2026-04-16 21:45 | 10.58727 | -85.78568 | 5629 ft | 250 kts | 178° |
| 2026-04-16 21:46 | 10.57007 | -85.78358 | 5304 ft | 250 kts | 160° |
| 2026-04-16 21:46 | 10.55381 | -85.77740 | 5026 ft | 248 kts | 156° |
| 2026-04-16 21:46 | 10.53924 | -85.76971 | 4928 ft | 226 kts | 135° |
| 2026-04-16 21:46 | 10.53030 | -85.75764 | 4818 ft | 205 kts | 112° |
| 2026-04-16 21:47 | 10.52661 | -85.74445 | 4711 ft | 186 kts | 96° |
| 2026-04-16 21:47 | 10.52680 | -85.73182 | 4592 ft | 174 kts | 78° |
| 2026-04-16 21:47 | 10.53029 | -85.72016 | 4323 ft | 172 kts | 71° |
| 2026-04-16 21:47 | 10.53438 | -85.70871 | 4015 ft | 172 kts | 71° |
| 2026-04-16 21:48 | 10.53853 | -85.69724 | 3721 ft | 175 kts | 71° |
| 2026-04-16 21:48 | 10.54270 | -85.68571 | 3456 ft | 171 kts | 71° |
| 2026-04-16 21:48 | 10.54659 | -85.67457 | 3194 ft | 159 kts | 70° |
| 2026-04-16 21:48 | 10.55013 | -85.66425 | 2918 ft | 152 kts | 70° |
| 2026-04-16 21:49 | 10.55235 | -85.65763 | 2672 ft | 147 kts | 70° |
| 2026-04-16 21:49 | 10.55647 | -85.64490 | 2318 ft | 130 kts | 69° |
| 2026-04-16 21:49 | 10.55857 | -85.63935 | 2142 ft | 125 kts | 69° |
| 2026-04-16 21:49 | 10.56194 | -85.63139 | 1846 ft | 122 kts | 67° |
| 2026-04-16 21:50 | 10.56632 | -85.62019 | 1740 ft | 127 kts | 70° |
| 2026-04-16 21:50 | 10.56906 | -85.61197 | 1468 ft | 122 kts | 69° |
| 2026-04-16 21:50 | 10.57235 | -85.60270 | 1313 ft | 143 kts | 68° |
| 2026-04-16 21:50 | 10.57482 | -85.59641 | 1160 ft | 141 kts | 69° |
| 2026-04-16 21:51 | 10.57818 | -85.58746 | 957 ft | 130 kts | 71° |
| 2026-04-16 21:51 | 10.58078 | -85.57871 | 733 ft | 130 kts | 64° |
| 2026-04-16 21:51 | 10.58428 | -85.57009 | 580 ft | 136 kts | 68° |
| 2026-04-16 21:51 | 10.58757 | -85.56103 | 429 ft | 136 kts | 69° |
| 2026-04-16 21:52 | 10.59051 | -85.55125 | 676 ft | 153 kts | 66° |
| 2026-04-16 21:52 | 10.59392 | -85.54031 | 1456 ft | 172 kts | 71° |
| 2026-04-16 21:52 | 10.59784 | -85.52839 | 2459 ft | 184 kts | 71° |
| 2026-04-16 21:52 | 10.60207 | -85.51576 | 3221 ft | 194 kts | 71° |
| 2026-04-16 21:53 | 10.60665 | -85.50211 | 3113 ft | 206 kts | 71° |
| 2026-04-16 21:53 | 10.61125 | -85.48831 | 3440 ft | 209 kts | 71° |
| 2026-04-16 21:53 | 10.61624 | -85.47388 | 4107 ft | 225 kts | 71° |
| 2026-04-16 21:53 | 10.62149 | -85.45890 | 5254 ft | 223 kts | 79° |
| 2026-04-16 21:54 | 10.62085 | -85.44376 | 6419 ft | 217 kts | 111° |
| 2026-04-16 21:54 | 10.61256 | -85.43066 | 6795 ft | 226 kts | 141° |
| 2026-04-16 21:54 | 10.59837 | -85.42387 | 6981 ft | 235 kts | 168° |
| 2026-04-16 21:54 | 10.58186 | -85.42546 | 7016 ft | 247 kts | 197° |
| 2026-04-16 21:55 | 10.56759 | -85.43535 | 7022 ft | 249 kts | 221° |
| 2026-04-16 21:55 | 10.55617 | -85.44822 | 6993 ft | 242 kts | 230° |
| 2026-04-16 21:55 | 10.54631 | -85.46171 | 7007 ft | 236 kts | 231° |
| 2026-04-16 21:55 | 10.53674 | -85.47515 | 6989 ft | 236 kts | 232° |
| 2026-04-16 21:56 | 10.52687 | -85.48873 | 7014 ft | 246 kts | 232° |
| 2026-04-16 21:56 | 10.51650 | -85.50286 | 7022 ft | 251 kts | 232° |
| 2026-04-16 21:56 | 10.50607 | -85.51708 | 7018 ft | 251 kts | 232° |
| 2026-04-16 21:56 | 10.49662 | -85.53197 | 6998 ft | 258 kts | 250° |
| 2026-04-16 21:57 | 10.49502 | -85.55112 | 7044 ft | 288 kts | 274° |
| 2026-04-16 21:57 | 10.49564 | -85.57172 | 7005 ft | 292 kts | 268° |
| 2026-04-16 21:57 | 10.49379 | -85.59220 | 6995 ft | 289 kts | 261° |
| 2026-04-16 21:57 | 10.49006 | -85.61240 | 6815 ft | 291 kts | 257° |
| 2026-04-16 21:58 | 10.48509 | -85.63222 | 6612 ft | 289 kts | 254° |
| 2026-04-16 21:58 | 10.47938 | -85.65179 | 6356 ft | 288 kts | 252° |
| 2026-04-16 21:58 | 10.47346 | -85.67124 | 6077 ft | 288 kts | 252° |
| 2026-04-16 21:58 | 10.46744 | -85.69066 | 5783 ft | 287 kts | 252° |
| 2026-04-16 21:59 | 10.46265 | -85.71007 | 5632 ft | 281 kts | 267° |
| 2026-04-16 21:59 | 10.46586 | -85.72904 | 5500 ft | 269 kts | 296° |
| 2026-04-16 21:59 | 10.47662 | -85.74437 | 5150 ft | 269 kts | 320° |
| 2026-04-16 21:59 | 10.49198 | -85.75431 | 5063 ft | 253 kts | 343° |
| 2026-04-16 22:00 | 10.50841 | -85.75476 | 4940 ft | 228 kts | 24° |
| 2026-04-16 22:00 | 10.51945 | -85.74518 | 4854 ft | 206 kts | 63° |
| 2026-04-16 22:00 | 10.52610 | -85.73299 | 4759 ft | 189 kts | 64° |
| 2026-04-16 22:00 | 10.53082 | -85.72106 | 4630 ft | 175 kts | 72° |
| 2026-04-16 22:01 | 10.53483 | -85.70959 | 4334 ft | 170 kts | 72° |
| 2026-04-16 22:01 | 10.53872 | -85.69818 | 3959 ft | 173 kts | 73° |
| 2026-04-16 22:01 | 10.54269 | -85.68669 | 3664 ft | 169 kts | 72° |
| 2026-04-16 22:01 | 10.54606 | -85.67542 | 3307 ft | 160 kts | 75° |
| 2026-04-16 22:02 | 10.54959 | -85.66509 | 3004 ft | 151 kts | 68° |
| 2026-04-16 22:02 | 10.55313 | -85.65563 | 2767 ft | 136 kts | 67° |
| 2026-04-16 22:02 | 10.55638 | -85.64684 | 2391 ft | 132 kts | 69° |
| 2026-04-16 22:02 | 10.55953 | -85.63824 | 1980 ft | 129 kts | 69° |
| 2026-04-16 22:03 | 10.56275 | -85.62977 | 1715 ft | 128 kts | 66° |
| 2026-04-16 22:03 | 10.56625 | -85.62147 | 1522 ft | 130 kts | 66° |
| 2026-04-16 22:03 | 10.56952 | -85.61219 | 1346 ft | 142 kts | 70° |
| 2026-04-16 22:03 | 10.57261 | -85.60276 | 1224 ft | 139 kts | 70° |
| 2026-04-16 22:04 | 10.57597 | -85.59327 | 1041 ft | 143 kts | 71° |
| 2026-04-16 22:04 | 10.57914 | -85.58349 | 894 ft | 149 kts | 70° |
| 2026-04-16 22:04 | 10.58302 | -85.57364 | 714 ft | 150 kts | 69° |
| 2026-04-16 22:04 | 10.58645 | -85.56381 | 475 ft | 143 kts | 70° |
| 2026-04-16 22:05 | 10.59003 | -85.55463 | 453 ft | 149 kts | 72° |
| 2026-04-16 22:05 | 10.59319 | -85.54436 | 1248 ft | 159 kts | 71° |
| 2026-04-16 22:05 | 10.59663 | -85.53312 | 2232 ft | 171 kts | 72° |
| 2026-04-16 22:05 | 10.60035 | -85.52145 | 3254 ft | 180 kts | 71° |
| 2026-04-16 22:06 | 10.60454 | -85.50930 | 4291 ft | 184 kts | 71° |
| 2026-04-16 22:06 | 10.61542 | -85.48500 | 5805 ft | 209 kts | 64° |
| 2026-04-16 22:06 | 10.62404 | -85.47050 | 5421 ft | 274 kts | 61° |
| 2026-04-16 22:07 | 10.63218 | -85.45216 | 5871 ft | 290 kts | 83° |
| 2026-04-16 22:07 | 10.62954 | -85.43252 | 6633 ft | 276 kts | 116° |
| 2026-04-16 22:07 | 10.61742 | -85.41836 | 6899 ft | 263 kts | 147° |
| 2026-04-16 22:07 | 10.59974 | -85.41375 | 6989 ft | 275 kts | 181° |
| 2026-04-16 22:08 | 10.58104 | -85.42008 | 7042 ft | 293 kts | 207° |
| 2026-04-16 22:08 | 10.56301 | -85.42994 | 7009 ft | 293 kts | 204° |
| 2026-04-16 22:08 | 10.54695 | -85.44189 | 6980 ft | 292 kts | 226° |
| 2026-04-16 22:08 | 10.53498 | -85.45826 | 6997 ft | 286 kts | 234° |
| 2026-04-16 22:09 | 10.52372 | -85.47493 | 7010 ft | 288 kts | 234° |
| 2026-04-16 22:09 | 10.51226 | -85.49176 | 7011 ft | 291 kts | 234° |
| 2026-04-16 22:09 | 10.50063 | -85.50858 | 7004 ft | 289 kts | 233° |
| 2026-04-16 22:09 | 10.48917 | -85.52493 | 6996 ft | 278 kts | 233° |
| 2026-04-16 22:10 | 10.48043 | -85.54200 | 6991 ft | 273 kts | 257° |
| 2026-04-16 22:10 | 10.47748 | -85.56130 | 7026 ft | 281 kts | 262° |
| 2026-04-16 22:10 | 10.47479 | -85.58115 | 7011 ft | 285 kts | 262° |
| 2026-04-16 22:10 | 10.47204 | -85.60109 | 6990 ft | 284 kts | 262° |
| 2026-04-16 22:11 | 10.46931 | -85.62055 | 6884 ft | 272 kts | 262° |
| 2026-04-16 22:11 | 10.46663 | -85.63948 | 6514 ft | 270 kts | 262° |
| 2026-04-16 22:11 | 10.46394 | -85.65837 | 6088 ft | 271 kts | 261° |
| 2026-04-16 22:11 | 10.46122 | -85.67730 | 5696 ft | 270 kts | 262° |
| 2026-04-16 22:12 | 10.45852 | -85.69607 | 5304 ft | 269 kts | 262° |
| 2026-04-16 22:12 | 10.45626 | -85.71483 | 5101 ft | 263 kts | 270° |
| 2026-04-16 22:12 | 10.46063 | -85.73231 | 5150 ft | 254 kts | 303° |
| 2026-04-16 22:12 | 10.47223 | -85.74502 | 5150 ft | 241 kts | 327° |
| 2026-04-16 22:13 | 10.48662 | -85.75298 | 5028 ft | 231 kts | 342° |
| 2026-04-16 22:13 | 10.50186 | -85.75595 | 4645 ft | 224 kts | 9° |
| 2026-04-16 22:13 | 10.51541 | -85.74938 | 4216 ft | 216 kts | 46° |
| 2026-04-16 22:13 | 10.52451 | -85.73721 | 3751 ft | 217 kts | 64° |
| 2026-04-16 22:14 | 10.53011 | -85.72313 | 3317 ft | 215 kts | 71° |
| 2026-04-16 22:14 | 10.53512 | -85.70864 | 3107 ft | 221 kts | 71° |
| 2026-04-16 22:14 | 10.54011 | -85.69413 | 3033 ft | 207 kts | 72° |
| 2026-04-16 22:14 | 10.54465 | -85.68110 | 2869 ft | 185 kts | 71° |
| 2026-04-16 22:15 | 10.54831 | -85.66950 | 2745 ft | 163 kts | 69° |
| 2026-04-16 22:15 | 10.55201 | -85.65934 | 2617 ft | 145 kts | 69° |
| 2026-04-16 22:15 | 10.55552 | -85.64973 | 2293 ft | 138 kts | 70° |
| 2026-04-16 22:15 | 10.55873 | -85.64094 | 2012 ft | 130 kts | 70° |
| 2026-04-16 22:16 | 10.56195 | -85.63221 | 1875 ft | 133 kts | 69° |
| 2026-04-16 22:16 | 10.56512 | -85.62330 | 1708 ft | 135 kts | 68° |
| 2026-04-16 22:16 | 10.56836 | -85.61428 | 1506 ft | 136 kts | 70° |
| 2026-04-16 22:16 | 10.57152 | -85.60512 | 1284 ft | 138 kts | 69° |
| 2026-04-16 22:17 | 10.57499 | -85.59609 | 1141 ft | 135 kts | 69° |
| 2026-04-16 22:17 | 10.57828 | -85.58712 | 1004 ft | 137 kts | 71° |
| 2026-04-16 22:17 | 10.58138 | -85.57793 | 842 ft | 139 kts | 70° |
| 2026-04-16 22:17 | 10.58483 | -85.56874 | 637 ft | 141 kts | 70° |
| 2026-04-16 22:18 | 10.58818 | -85.55920 | 362 ft | 145 kts | 71° |
| 2026-04-16 22:18 | 10.59145 | -85.54986 | 284 ft | 130 kts | 70° |
| 2026-04-16 22:18 | 10.59401 | -85.54274 | 278 ft | 78 kts | 70° |
| 2026-04-16 22:18 | 10.59513 | -85.53961 | 278 ft | 16 kts | 70° |
| 2026-04-16 22:19 | 10.59550 | -85.53861 | 282 ft | 15 kts | 64° |
| 2026-04-16 22:19 | 10.59636 | -85.53838 | 279 ft | 12 kts | 341° |
| 2026-04-16 22:19 | 10.59717 | -85.53868 | 280 ft | 14 kts | 340° |
| 2026-04-16 22:19 | 10.59780 | -85.53861 | 280 ft | 8 kts | 71° |
| 2026-04-16 22:20 | 10.59804 | -85.53795 | 280 ft | 12 kts | 70° |
| 2026-04-16 22:20 | 10.59834 | -85.53709 | 280 ft | 14 kts | 70° |
| 2026-04-16 22:20 | 10.59868 | -85.53615 | 282 ft | 9 kts | 70° |
| 2026-04-16 22:20 | 10.59893 | -85.53598 | 280 ft | 4 kts | 342° |
| 2026-04-16 22:21 | 10.59931 | -85.53612 | 280 ft | 7 kts | 340° |
| 2026-04-16 22:21 | 10.59958 | -85.53622 | 280 ft | 2 kts | 339° |
| 2026-04-16 22:21 | 10.59959 | -85.53623 | 280 ft | 0 kts | 339° |